SU1277 / RA-89024 7700 Squawk Report (30th of July, 2021)

Aircraft SU95 Reg No. RA-89024 Age 7 years old
Model SSJ-100 Jet engines 2 First flight 24-01-14
Registered 28-03-14 Rollout 12-13 Delivered 28-03-14
Construction No. 95044 Line No. 044 Series 95B
ADSHEX 155BC0 Airline name Aeroflot Russian Airlines Owner N/A
Airfield based Moscow-Sheremetyevo~Moscow~RA First tracked N/A

Flight history for RA-89024

Route Flight No Date Playback
Kazan (KZN) - Sheremetyevo (SVO) SU1277 2021-09-15 13:48:00
Sheremetyevo (SVO) - Kazan (KZN) SU1276 2021-09-15 10:13:00
???? N/A 2021-09-14 14:31:00
Sheremetyevo (SVO) - Kazan (KZN) SU1276 2021-09-13 10:15:00
Orenburg (REN) - Sheremetyevo (SVO) SU1249 2021-09-10 22:44:00
Sheremetyevo (SVO) - Orenburg (REN) SU1248 2021-09-10 19:30:00
Orenburg (REN) - Sheremetyevo (SVO) SU1247 2021-09-09 09:49:00
Sheremetyevo (SVO) - Orenburg (REN) SU1246 2021-09-09 06:47:00
Orenburg (REN) - Sheremetyevo (SVO) SU1243 2021-09-09 03:21:00
Sheremetyevo (SVO) - Orenburg (REN) SU1242 2021-09-08 18:23:00
Kazan (KZN) - Sheremetyevo (SVO) SU1277 2021-09-08 14:41:00
Sheremetyevo (SVO) - Kazan (KZN) SU1276 2021-09-08 10:32:00
Kazan (KZN) - Sheremetyevo (SVO) SU1271 2021-09-08 08:47:00
Sheremetyevo (SVO) - Kazan (KZN) SU1270 2021-09-08 04:38:00
Kazan (KZN) - Sheremetyevo (SVO) SU1277 2021-09-07 14:05:00
Sheremetyevo (SVO) - Kazan (KZN) SU1276 2021-09-07 10:20:00
Kazan (KZN) - Sheremetyevo (SVO) SU1277 2021-09-06 14:23:00
Sheremetyevo (SVO) - Kazan (KZN) SU1276 2021-09-06 10:38:00
Tunoshna Airport (IAR) - Sheremetyevo (SVO) SU1343 2021-09-06 08:55:00
Sheremetyevo (SVO) - Tunoshna Airport (IAR) SU1342 2021-09-06 03:54:00
Time Lat Lon Altitude Heading Speed Vertical Rate
2021-07-30 14:52:21 GMT 55.978367 37.407009 0 0
2021-07-30 14:52:11 GMT 55.978374 37.407032 0 0
2021-07-30 14:51:31 GMT 55.978134 37.407139 0 2
2021-07-30 14:51:24 GMT 55.978077 37.407158 0 2
2021-07-30 14:51:16 GMT 55.978008 37.407181 0 2
2021-07-30 14:51:08 GMT 55.977924 37.407223 0 2
2021-07-30 14:50:57 GMT 55.977837 37.407261 0 2
2021-07-30 14:50:47 GMT 55.977757 37.407303 0 2
2021-07-30 14:50:29 GMT 55.977600 37.407417 0 2
2021-07-30 14:50:23 GMT 55.977573 37.407429 0 2
2021-07-30 14:50:00 GMT 55.977367 37.407406 0 2
2021-07-30 14:49:57 GMT 55.977345 37.407364 0 2
2021-07-30 14:49:46 GMT 55.977287 37.407261 0 2
2021-07-30 14:49:34 GMT 55.977249 37.407097 0 2
2021-07-30 14:48:56 GMT 55.977253 37.407013 0 2
2021-07-30 14:48:54 GMT 55.977264 37.407055 0 3
2021-07-30 14:48:45 GMT 55.977310 37.407310 0 4
2021-07-30 14:48:26 GMT 55.977356 37.407780 0 4
2021-07-30 14:48:24 GMT 55.977356 37.407864 0 3
2021-07-30 14:48:14 GMT 55.977310 37.408081 0 3
2021-07-30 14:48:03 GMT 55.977215 37.408234 0 3
2021-07-30 14:47:43 GMT 55.976944 37.408386 0 3
2021-07-30 14:47:42 GMT 55.976933 37.408386 0 3
2021-07-30 14:47:31 GMT 55.976772 37.408470 0 3
2021-07-30 14:47:21 GMT 55.976658 37.408512 0 3
2021-07-30 14:47:12 GMT 55.976532 37.408573 0 4
2021-07-30 14:46:56 GMT 55.976292 37.408695 0 4
2021-07-30 14:46:51 GMT 55.976234 37.408718 0 4
2021-07-30 14:46:36 GMT 55.976017 37.408855 0 4
2021-07-30 14:46:29 GMT 55.975925 37.408947 0 4
2021-07-30 14:46:20 GMT 55.975853 37.409134 0 4
2021-07-30 14:46:09 GMT 55.975834 37.409424 0 4
2021-07-30 14:45:59 GMT 55.975880 37.409695 0 4
2021-07-30 14:45:49 GMT 55.975937 37.410076 0 5
2021-07-30 14:45:39 GMT 55.975994 37.410484 0 6
2021-07-30 14:45:29 GMT 55.976051 37.410915 0 6
2021-07-30 14:45:19 GMT 55.976131 37.411404 0 6
2021-07-30 14:45:08 GMT 55.976189 37.411819 0 6
2021-07-30 14:44:58 GMT 55.976257 37.412212 0 4
2021-07-30 14:43:18 GMT 55.976303 37.412506 0 2
2021-07-30 14:43:13 GMT 55.976303 37.412544 0 2
2021-07-30 14:43:04 GMT 55.976330 37.412739 0 4
2021-07-30 14:42:51 GMT 55.976402 37.413212 0 5
2021-07-30 14:42:40 GMT 55.976448 37.413490 0 0
2021-07-30 14:42:33 GMT 55.976452 37.413502 0 0
2021-07-30 14:42:23 GMT 55.976452 37.413483 0 0
2021-07-30 14:42:12 GMT 55.976452 37.413502 0 0
2021-07-30 14:42:02 GMT 55.976460 37.413574 0 2
2021-07-30 14:41:51 GMT 55.976486 37.413773 0 3
2021-07-30 14:41:41 GMT 55.976517 37.413963 0 3
2021-07-30 14:41:28 GMT 55.976551 37.414219 0 3
2021-07-30 14:41:21 GMT 55.976578 37.414375 0 3
2021-07-30 14:41:10 GMT 55.976601 37.414566 0 3
2021-07-30 14:41:00 GMT 55.976635 37.414772 0 3
2021-07-30 14:40:50 GMT 55.976669 37.414959 0 3
2021-07-30 14:40:37 GMT 55.976715 37.415211 0 3
2021-07-30 14:40:23 GMT 55.976761 37.415508 0 3
2021-07-30 14:40:18 GMT 55.976784 37.415562 0 3
2021-07-30 14:40:04 GMT 55.976864 37.415771 0 3
2021-07-30 14:39:33 GMT 55.977180 37.415916 0 3
2021-07-30 14:39:17 GMT 55.977322 37.415852 0 3
2021-07-30 14:39:07 GMT 55.977425 37.415806 0 3
2021-07-30 14:38:55 GMT 55.977528 37.415752 0 3
2021-07-30 14:38:33 GMT 55.977734 37.415646 0 3
2021-07-30 14:38:23 GMT 55.977821 37.415592 0 2
2021-07-30 14:38:14 GMT 55.977917 37.415562 0 2
2021-07-30 14:37:55 GMT 55.978065 37.415501 0 2
2021-07-30 14:37:51 GMT 55.978100 37.415485 0 2
2021-07-30 14:37:18 GMT 55.978409 37.415337 0 2
2021-07-30 14:36:07 GMT 55.978546 37.415272 0 0
2021-07-30 14:35:56 GMT 55.978546 37.415253 0 0
2021-07-30 14:35:49 GMT 55.978523 37.415253 0 0
2021-07-30 14:35:34 GMT 55.978535 37.415272 0 0
2021-07-30 14:35:18 GMT 55.978497 37.415291 0 3
2021-07-30 14:34:11 GMT 55.978306 37.416126 0 2
2021-07-30 14:34:05 GMT 55.978317 37.416206 0 2
2021-07-30 14:33:55 GMT 55.978333 37.416367 0 2
2021-07-30 14:33:41 GMT 55.978340 37.416477 0 0
2021-07-30 14:33:30 GMT 55.978340 37.416458 0 0
2021-07-30 14:32:55 GMT 55.978355 37.416451 0 0
2021-07-30 14:32:52 GMT 55.978352 37.416458 0 0
2021-07-30 14:32:44 GMT 55.978344 37.416451 0 0
2021-07-30 14:32:34 GMT 55.978363 37.416435 0 0
2021-07-30 14:32:20 GMT 55.978367 37.416431 0 0
2021-07-30 14:28:44 GMT 55.978355 37.416473 0 0
2021-07-30 14:28:30 GMT 55.978344 37.416473 0 0
2021-07-30 14:27:18 GMT 55.978374 37.416477 0 0
2021-07-30 14:26:59 GMT 55.978363 37.416477 0 0
2021-07-30 14:26:28 GMT 55.978367 37.416473 0 0
2021-07-30 14:26:19 GMT 55.978363 37.416458 0 0
2021-07-30 14:26:03 GMT 55.978386 37.416458 0 0
2021-07-30 14:25:28 GMT 55.978390 37.416473 0 0
2021-07-30 14:25:03 GMT 55.978374 37.416477 0 0
2021-07-30 14:24:48 GMT 55.978355 37.416473 0 0
2021-07-30 14:24:43 GMT 55.978352 37.416458 0 0
2021-07-30 14:24:34 GMT 55.978344 37.416473 0 0
2021-07-30 14:24:08 GMT 55.978344 37.416451 0 0
2021-07-30 14:24:04 GMT 55.978340 37.416458 0 0
2021-07-30 14:23:43 GMT 55.978344 37.416473 0 0
2021-07-30 14:23:33 GMT 55.978340 37.416458 0 0
2021-07-30 14:23:03 GMT 55.978344 37.416451 0 0
2021-07-30 14:21:01 GMT 55.978374 37.416458 0 0
2021-07-30 14:20:08 GMT 55.978378 37.416451 0 0
2021-07-30 14:19:49 GMT 55.978378 37.416473 0 0
2021-07-30 14:18:36 GMT 55.978413 37.416515 0 0
2021-07-30 14:18:24 GMT 55.978420 37.416500 0 0
2021-07-30 14:18:10 GMT 55.978409 37.416500 0 0
2021-07-30 14:18:01 GMT 55.978401 37.416492 0 0
2021-07-30 14:16:39 GMT 55.978367 37.416451 0 0
2021-07-30 14:13:48 GMT 55.978363 37.416458 0 0
2021-07-30 14:12:43 GMT 55.978317 37.416435 0 0
2021-07-30 14:12:14 GMT 55.978310 37.416431 0 0
2021-07-30 14:12:04 GMT 55.978321 37.416409 0 0
2021-07-30 14:11:54 GMT 55.978329 37.416416 0 0
2021-07-30 14:11:29 GMT 55.978321 37.416409 0 0
2021-07-30 14:11:20 GMT 55.978329 37.416397 0 0
2021-07-30 14:11:12 GMT 55.978317 37.416397 0 0
2021-07-30 14:11:01 GMT 55.978321 37.416386 0 0
2021-07-30 14:10:53 GMT 55.978317 37.416397 0 0
2021-07-30 14:10:37 GMT 55.978333 37.416409 0 0
2021-07-30 14:10:12 GMT 55.978321 37.416431 0 0
2021-07-30 14:09:57 GMT 55.978329 37.416458 0 0
2021-07-30 14:09:51 GMT 55.978340 37.416458 0 0
2021-07-30 14:09:39 GMT 55.978378 37.416451 0 0
2021-07-30 14:09:29 GMT 55.978390 37.416473 0 0
2021-07-30 14:09:13 GMT 55.978409 37.416519 0 0
2021-07-30 14:09:08 GMT 55.978413 37.416515 0 0
2021-07-30 14:08:58 GMT 55.978409 37.416542 0 0
2021-07-30 14:08:49 GMT 55.978420 37.416542 0 0
2021-07-30 14:08:38 GMT 55.978428 37.416538 0 0
2021-07-30 14:08:29 GMT 55.978409 37.416542 0 0
2021-07-30 14:08:18 GMT 55.978390 37.416515 0 0
2021-07-30 14:08:08 GMT 55.978355 37.416515 0 0
2021-07-30 14:07:57 GMT 55.978321 37.416492 0 0
2021-07-30 14:07:48 GMT 55.978294 37.416477 0 0
2021-07-30 14:07:35 GMT 55.978260 37.416458 0 0
2021-07-30 14:07:25 GMT 55.978249 37.416458 0 0
2021-07-30 14:07:15 GMT 55.978252 37.416451 0 0
2021-07-30 14:07:06 GMT 55.978275 37.416431 0 0
2021-07-30 14:06:54 GMT 55.978306 37.416397 0 0
2021-07-30 14:06:45 GMT 55.978329 37.416397 0 0
2021-07-30 14:06:35 GMT 55.978340 37.416416 0 0
2021-07-30 14:06:21 GMT 55.978363 37.416458 0 0
2021-07-30 14:05:51 GMT 55.978428 37.416473 0 0
2021-07-30 14:05:40 GMT 55.978420 37.416500 0 0
2021-07-30 14:05:30 GMT 55.978413 37.416515 0 0
2021-07-30 14:05:21 GMT 55.978428 37.416515 0 0
2021-07-30 14:05:05 GMT 55.978439 37.416515 0 0
2021-07-30 14:04:50 GMT 55.978409 37.416500 0 0
2021-07-30 14:04:41 GMT 55.978386 37.416500 0 0
2021-07-30 14:04:25 GMT 55.978378 37.416492 0 0
2021-07-30 14:04:20 GMT 55.978390 37.416492 0 0
2021-07-30 14:04:10 GMT 55.978397 37.416500 0 0
2021-07-30 14:03:59 GMT 55.978397 37.416477 0 0
2021-07-30 14:03:39 GMT 55.978390 37.416473 0 0
2021-07-30 14:03:29 GMT 55.978386 37.416477 0 0
2021-07-30 14:03:19 GMT 55.978397 37.416477 0 0
2021-07-30 14:03:10 GMT 55.978397 37.416458 0 0
2021-07-30 14:02:44 GMT 55.978390 37.416473 0 0
2021-07-30 14:02:24 GMT 55.978386 37.416477 0 0
2021-07-30 14:02:14 GMT 55.978397 37.416500 0 0
2021-07-30 14:01:59 GMT 55.978428 37.416492 0 0
2021-07-30 14:01:55 GMT 55.978420 37.416477 0 0
2021-07-30 14:01:44 GMT 55.978413 37.416492 0 0
2021-07-30 14:01:37 GMT 55.978401 37.416492 0 0
2021-07-30 14:01:26 GMT 55.978374 37.416500 0 0
2021-07-30 14:01:16 GMT 55.978355 37.416492 0 0
2021-07-30 14:01:05 GMT 55.978321 37.416473 0 0
2021-07-30 14:00:46 GMT 55.978310 37.416431 0 0
2021-07-30 14:00:27 GMT 55.978283 37.416374 0 0
2021-07-30 14:00:22 GMT 55.978271 37.416374 0 0
2021-07-30 14:00:12 GMT 55.978252 37.416367 0 0
2021-07-30 14:00:03 GMT 55.978241 37.416367 0 0
2021-07-30 13:59:52 GMT 55.978226 37.416374 0 0
2021-07-30 13:59:43 GMT 55.978237 37.416374 0 0
2021-07-30 13:59:33 GMT 55.978249 37.416355 0 0
2021-07-30 13:59:23 GMT 55.978249 37.416374 0 0
2021-07-30 13:59:13 GMT 55.978260 37.416290 0 0
2021-07-30 13:59:00 GMT 55.978260 37.416374 0 0
2021-07-30 13:58:51 GMT 55.978287 37.416386 0 0
2021-07-30 13:58:41 GMT 55.978294 37.416397 0 0
2021-07-30 13:58:32 GMT 55.978306 37.416332 0 0
2021-07-30 13:58:22 GMT 55.978321 37.416367 0 0
2021-07-30 13:58:10 GMT 55.978344 37.416431 0 0
2021-07-30 13:58:01 GMT 55.978367 37.416431 0 0
2021-07-30 13:57:40 GMT 55.978432 37.416458 0 0
2021-07-30 13:57:28 GMT 55.978409 37.416458 0 0
2021-07-30 13:57:18 GMT 55.978409 37.416477 0 0
2021-07-30 13:57:08 GMT 55.978401 37.416473 0 0
2021-07-30 13:56:59 GMT 55.978401 37.416492 0 0
2021-07-30 13:56:48 GMT 55.978409 37.416500 0 0
2021-07-30 13:56:28 GMT 55.978401 37.416492 0 0
2021-07-30 13:56:19 GMT 55.978401 37.416515 0 0
2021-07-30 13:56:08 GMT 55.978378 37.416515 0 0
2021-07-30 13:55:57 GMT 55.978374 37.416519 0 0
2021-07-30 13:55:48 GMT 55.978352 37.416519 0 0
2021-07-30 13:55:37 GMT 55.978344 37.416492 0 0
2021-07-30 13:55:12 GMT 55.978344 37.416473 0 0
2021-07-30 13:54:52 GMT 55.978352 37.416458 0 0
2021-07-30 13:54:42 GMT 55.978352 37.416435 0 0
2021-07-30 13:54:07 GMT 55.978344 37.416451 0 0
2021-07-30 13:54:02 GMT 55.978340 37.416458 0 0
2021-07-30 13:53:54 GMT 55.978355 37.416431 0 0
2021-07-30 13:53:43 GMT 55.978367 37.416431 0 0
2021-07-30 13:53:33 GMT 55.978374 37.416416 0 0
2021-07-30 13:53:21 GMT 55.978378 37.416431 0 0
2021-07-30 13:53:11 GMT 55.978386 37.416435 0 0
2021-07-30 13:52:51 GMT 55.978390 37.416473 0 0
2021-07-30 13:52:42 GMT 55.978378 37.416492 0 0
2021-07-30 13:52:31 GMT 55.978386 37.416477 0 0
2021-07-30 13:52:11 GMT 55.978401 37.416473 0 0
2021-07-30 13:52:02 GMT 55.978378 37.416492 0 0
2021-07-30 13:51:51 GMT 55.978367 37.416515 0 0
2021-07-30 13:51:36 GMT 55.978363 37.416519 0 0
2021-07-30 13:51:17 GMT 55.978367 37.416492 0 0
2021-07-30 13:51:10 GMT 55.978378 37.416492 0 0
2021-07-30 13:50:58 GMT 55.978420 37.416542 0 0
2021-07-30 13:50:50 GMT 55.978401 37.416515 0 0
2021-07-30 13:50:39 GMT 55.978378 37.416492 0 0
2021-07-30 13:50:24 GMT 55.978352 37.416458 0 0
2021-07-30 13:50:15 GMT 55.978340 37.416458 0 0
2021-07-30 13:49:55 GMT 55.978333 37.416451 0 0
2021-07-30 13:49:47 GMT 55.978329 37.416458 0 0
2021-07-30 13:49:37 GMT 55.978329 37.416435 0 0
2021-07-30 13:49:28 GMT 55.978310 37.416409 0 0
2021-07-30 13:48:57 GMT 55.978340 37.416458 0 0
2021-07-30 13:48:46 GMT 55.978363 37.416477 0 0
2021-07-30 13:48:35 GMT 55.978390 37.416492 0 0
2021-07-30 13:48:25 GMT 55.978401 37.416492 0 0
2021-07-30 13:48:12 GMT 55.978397 37.416458 0 0
2021-07-30 13:47:51 GMT 55.978397 37.416435 0 0
2021-07-30 13:47:42 GMT 55.978401 37.416431 0 0
2021-07-30 13:47:26 GMT 55.978413 37.416386 0 0
2021-07-30 13:47:16 GMT 55.978420 37.416435 0 0
2021-07-30 13:47:01 GMT 55.978397 37.416435 0 0
2021-07-30 13:46:50 GMT 55.978401 37.416431 0 0
2021-07-30 13:46:35 GMT 55.978409 37.416435 0 0
2021-07-30 13:46:25 GMT 55.978413 37.416409 0 0
2021-07-30 13:46:23 GMT 55.978409 37.416416 0 0
2021-07-30 13:46:12 GMT 55.978397 37.416435 0 0
2021-07-30 13:46:02 GMT 55.978390 37.416473 0 0
2021-07-30 13:45:51 GMT 55.978390 37.416431 0 0
2021-07-30 13:45:23 GMT 55.978386 37.416416 0 0
2021-07-30 13:45:09 GMT 55.978386 37.416435 0 0
2021-07-30 13:44:58 GMT 55.978367 37.416473 0 0
2021-07-30 13:44:48 GMT 55.978367 37.416492 0 0
2021-07-30 13:44:38 GMT 55.978355 37.416515 0 0
2021-07-30 13:44:24 GMT 55.978340 37.416458 0 0
2021-07-30 13:44:14 GMT 55.978352 37.416458 0 0
2021-07-30 13:43:54 GMT 55.978367 37.416473 0 0
2021-07-30 13:43:46 GMT 55.978363 37.416435 0 0
2021-07-30 13:43:37 GMT 55.978363 37.416416 0 0
2021-07-30 13:43:27 GMT 55.978352 37.416397 0 0
2021-07-30 13:43:18 GMT 55.978374 37.416500 0 0
2021-07-30 13:43:02 GMT 55.978378 37.416492 0 0
2021-07-30 13:42:57 GMT 55.978374 37.416477 0 0
2021-07-30 13:42:42 GMT 55.978363 37.416500 0 0
2021-07-30 13:42:37 GMT 55.978355 37.416492 0 0
2021-07-30 13:42:26 GMT 55.978363 37.416477 0 0
2021-07-30 13:42:15 GMT 55.978378 37.416492 0 0
2021-07-30 13:42:05 GMT 55.978390 37.416492 0 0
2021-07-30 13:41:56 GMT 55.978390 37.416451 0 0
2021-07-30 13:41:23 GMT 55.978367 37.416386 0 0
2021-07-30 13:41:07 GMT 55.978355 37.416386 0 0
2021-07-30 13:41:02 GMT 55.978344 37.416409 0 0
2021-07-30 13:40:47 GMT 55.978310 37.416409 0 0
2021-07-30 13:40:44 GMT 55.978306 37.416397 0 0
2021-07-30 13:40:33 GMT 55.978298 37.416386 0 0
2021-07-30 13:40:23 GMT 55.978306 37.416397 0 0
2021-07-30 13:40:01 GMT 55.978298 37.416431 0 0
2021-07-30 13:39:46 GMT 55.978317 37.416458 0 0
2021-07-30 13:39:41 GMT 55.978329 37.416458 0 0
2021-07-30 13:39:27 GMT 55.978352 37.416458 0 0
2021-07-30 13:38:57 GMT 55.978374 37.416458 0 0
2021-07-30 13:38:47 GMT 55.978378 37.416431 0 0
2021-07-30 13:38:39 GMT 55.978390 37.416431 0 0
2021-07-30 13:38:29 GMT 55.978401 37.416473 0 0
2021-07-30 13:38:20 GMT 55.978401 37.416492 0 0
2021-07-30 13:37:57 GMT 55.978409 37.416519 0 0
2021-07-30 13:37:37 GMT 55.978432 37.416542 0 0
2021-07-30 13:37:25 GMT 55.978443 37.416542 0 0
2021-07-30 13:37:16 GMT 55.978439 37.416538 0 0
2021-07-30 13:37:08 GMT 55.978409 37.416519 0 0
2021-07-30 13:36:55 GMT 55.978378 37.416515 0 0
2021-07-30 13:36:45 GMT 55.978374 37.416500 0 0
2021-07-30 13:36:35 GMT 55.978378 37.416492 0 0
2021-07-30 13:36:14 GMT 55.978374 37.416500 0 0
2021-07-30 13:36:04 GMT 55.978340 37.416477 0 0
2021-07-30 13:35:39 GMT 55.978306 37.416435 0 0
2021-07-30 13:35:04 GMT 55.978340 37.416416 0 0
2021-07-30 13:34:23 GMT 55.978352 37.416458 0 0
2021-07-30 13:34:14 GMT 55.978355 37.416451 0 0
2021-07-30 13:33:54 GMT 55.978386 37.416458 0 0
2021-07-30 13:33:23 GMT 55.978413 37.416473 0 0
2021-07-30 13:33:13 GMT 55.978420 37.416477 0 0
2021-07-30 13:32:53 GMT 55.978386 37.416500 0 0
2021-07-30 13:32:34 GMT 55.978378 37.416492 0 0
2021-07-30 13:32:23 GMT 55.978374 37.416477 0 0
2021-07-30 13:32:13 GMT 55.978363 37.416458 0 0
2021-07-30 13:32:03 GMT 55.978374 37.416458 0 0
2021-07-30 13:31:48 GMT 55.978401 37.416451 0 0
2021-07-30 13:31:34 GMT 55.978374 37.416477 0 0
2021-07-30 13:31:28 GMT 55.978378 37.416473 0 0
2021-07-30 13:31:21 GMT 55.978367 37.416473 0 0
2021-07-30 13:31:09 GMT 55.978321 37.416473 0 0
2021-07-30 13:31:01 GMT 55.978352 37.416458 0 0
2021-07-30 13:30:39 GMT 55.978390 37.416431 0 0
2021-07-30 13:30:20 GMT 55.978367 37.416431 0 0
2021-07-30 13:29:59 GMT 55.978386 37.416416 0 0
2021-07-30 13:29:54 GMT 55.978390 37.416409 0 0
2021-07-30 13:29:45 GMT 55.978378 37.416409 0 0
2021-07-30 13:29:34 GMT 55.978386 37.416416 0 0
2021-07-30 13:29:24 GMT 55.978374 37.416416 0 0
2021-07-30 13:29:10 GMT 55.978352 37.416416 0 0
2021-07-30 13:29:04 GMT 55.978340 37.416397 0 0
2021-07-30 13:28:54 GMT 55.978306 37.416397 0 0
2021-07-30 13:28:44 GMT 55.978298 37.416386 0 0
2021-07-30 13:28:24 GMT 55.978283 37.416397 0 0
2021-07-30 13:28:04 GMT 55.978321 37.416409 0 0
2021-07-30 13:27:54 GMT 55.978352 37.416416 0 0
2021-07-30 13:27:45 GMT 55.978363 37.416435 0 0
2021-07-30 13:27:34 GMT 55.978367 37.416431 0 0
2021-07-30 13:27:24 GMT 55.978355 37.416409 0 0
2021-07-30 13:27:13 GMT 55.978321 37.416409 0 0
2021-07-30 13:27:00 GMT 55.978321 37.416431 0 0
2021-07-30 13:26:49 GMT 55.978321 37.416451 0 0
2021-07-30 13:26:30 GMT 55.978298 37.416451 0 0
2021-07-30 13:26:19 GMT 55.978287 37.416473 0 0
2021-07-30 13:26:03 GMT 55.978306 37.416458 0 0
2021-07-30 13:26:02 GMT 55.978310 37.416473 0 0
2021-07-30 13:25:52 GMT 55.978321 37.416473 0 0
2021-07-30 13:25:41 GMT 55.978333 37.416451 0 0
2021-07-30 13:25:29 GMT 55.978344 37.416451 0 0
2021-07-30 13:25:19 GMT 55.978363 37.416458 0 0
We lost coverage of the aircraft here for a total of 21 minutes
2021-07-30 13:04:26 GMT 55.978367 37.416451 0 75 0 0
2021-07-30 13:04:15 GMT 55.978390 37.416473 0 75 0 0
2021-07-30 13:04:06 GMT 55.978367 37.416344 0 75 4 0
2021-07-30 13:03:50 GMT 55.978157 37.415569 0 75 9 0
2021-07-30 13:03:43 GMT 55.977894 37.415585 0 75 11 0
2021-07-30 13:03:35 GMT 55.977505 37.415771 0 75 9 0
2021-07-30 13:03:23 GMT 55.977058 37.415710 0 75 9 0
2021-07-30 13:03:11 GMT 55.976482 37.415936 0 75 10 0
2021-07-30 13:02:58 GMT 55.976017 37.415981 0 75 10 0
2021-07-30 13:02:53 GMT 55.975880 37.415646 0 75 10 0
2021-07-30 13:02:42 GMT 55.975628 37.414001 0 75 25 0
2021-07-30 13:02:31 GMT 55.975307 37.411922 0 73 25 0
2021-07-30 13:02:24 GMT 55.975098 37.410484 0 75 25 0
2021-07-30 13:02:03 GMT 55.974552 37.406822 0 75 21 0
2021-07-30 13:01:59 GMT 55.974422 37.405979 0 75 28 0
2021-07-30 13:01:52 GMT 55.974197 37.404453 0 75 30 0
2021-07-30 13:01:43 GMT 55.973873 37.402267 0 75 28 0
2021-07-30 13:01:32 GMT 55.973534 37.400040 0 75 27 0
2021-07-30 13:01:22 GMT 55.973202 37.397793 0 75 28 0
2021-07-30 13:01:02 GMT 55.972572 37.393528 0 75 26 0
2021-07-30 13:01:00 GMT 55.972527 37.393234 0 75 26 0
2021-07-30 13:00:50 GMT 55.972198 37.391087 0 75 25 0
2021-07-30 13:00:36 GMT 55.971828 37.388599 0 75 22 0
2021-07-30 13:00:29 GMT 55.971657 37.387432 0 75 21 0
2021-07-30 13:00:20 GMT 55.971432 37.385918 0 118 20 0
2021-07-30 13:00:04 GMT 55.971081 37.383640 0 118 19 0
2021-07-30 12:59:23 GMT 55.970810 37.378422 0 118 11 0
2021-07-30 12:59:15 GMT 55.971027 37.377632 0 118 20 0
2021-07-30 12:59:02 GMT 55.971767 37.374973 0 118 28 0
2021-07-30 12:58:51 GMT 55.972286 37.373158 0 115 27 0
2021-07-30 12:58:41 GMT 55.972851 37.371174 0 115 26 0
2021-07-30 12:58:34 GMT 55.973202 37.369934 0 115 25 0
2021-07-30 12:58:20 GMT 55.973923 37.367355 0 118 22 0
2021-07-30 12:57:55 GMT 55.975285 37.364086 0 75 18 0
2021-07-30 12:57:42 GMT 55.976147 37.363365 0 75 17 0
2021-07-30 12:57:30 GMT 55.977024 37.362942 0 75 18 0
2021-07-30 12:57:15 GMT 55.978168 37.362381 0 75 18 0
2021-07-30 12:57:14 GMT 55.978317 37.362316 0 75 18 0
2021-07-30 12:57:00 GMT 55.979343 37.361820 0 75 18 0
2021-07-30 12:56:47 GMT 55.980370 37.361347 0 75 18 0
2021-07-30 12:56:43 GMT 55.980682 37.361198 0 75 18 0
2021-07-30 12:56:32 GMT 55.981510 37.360809 0 75 17 0
2021-07-30 12:56:20 GMT 55.982384 37.360382 0 75 16 0
2021-07-30 12:56:05 GMT 55.983280 37.359955 0 75 12 0
2021-07-30 12:56:03 GMT 55.983440 37.359890 0 75 11 0
2021-07-30 12:55:52 GMT 55.983730 37.359257 0 75 10 0
2021-07-30 12:55:37 GMT 55.983421 37.357075 0 75 24 0
2021-07-30 12:55:31 GMT 55.983273 37.356094 0 75 24 0
2021-07-30 12:55:12 GMT 55.982742 37.352570 0 75 21 0
2021-07-30 12:55:07 GMT 55.982639 37.351841 0 241 20 0
2021-07-30 12:54:58 GMT 55.982452 37.350574 0 241 18 0
2021-07-30 12:54:42 GMT 55.982151 37.348560 0 241 13 0
2021-07-30 12:54:35 GMT 55.982059 37.347939 0 241 10 0
2021-07-30 12:54:29 GMT 55.982048 37.347481 0 241 9 0
2021-07-30 12:54:19 GMT 55.982368 37.347065 0 241 9 0
2021-07-30 12:54:09 GMT 55.982758 37.347439 0 241 13 0
2021-07-30 12:53:59 GMT 55.983173 37.348194 0 241 15 0
2021-07-30 12:53:44 GMT 55.983730 37.349377 1,225 241 15 0
2021-07-30 12:53:35 GMT 55.984039 37.350330 1,500 241 21 0
2021-07-30 12:53:28 GMT 55.984409 37.351887 1,225 253 25 0
2021-07-30 12:53:18 GMT 55.988468 37.379177 1,500 256 152 -832
2021-07-30 12:52:54 GMT 55.988468 37.379177 1,500 255 154 -832
2021-07-30 12:52:47 GMT 55.989632 37.386646 1,575 256 152 -768
2021-07-30 12:52:33 GMT 55.993149 37.410194 1,225 256 154 -832
2021-07-30 12:52:24 GMT 55.994846 37.421577 1,350 255 152 -1024
2021-07-30 12:52:12 GMT 55.995964 37.429047 1,450 256 151 -704
2021-07-30 12:52:06 GMT 55.997223 37.437458 1,575 256 152 -768
2021-07-30 12:51:53 GMT 56.000340 37.458488 1,750 256 152 -960
2021-07-30 12:51:44 GMT 56.001038 37.463207 1,800 256 151 -960
2021-07-30 12:51:34 GMT 56.002995 37.476337 2,100 255 153 -832
2021-07-30 12:51:24 GMT 56.005787 37.494881 2,125 255 153 -832
2021-07-30 12:51:16 GMT 56.006626 37.500374 2,200 255 154 -896
2021-07-30 12:51:13 GMT 56.006626 37.500374 2,225 256 158 -512
2021-07-30 12:51:09 GMT 56.007385 37.505493 2,225 256 158 -512
2021-07-30 12:51:04 GMT 56.008488 37.513077 2,350 256 157 -704
2021-07-30 12:50:59 GMT 56.009232 37.517879 2,400 256 158 -512
2021-07-30 12:50:53 GMT 56.011421 37.532730 2,500 256 165 -896
2021-07-30 12:50:46 GMT 56.011654 37.534534 2,575 256 162 -896
2021-07-30 12:50:42 GMT 56.012630 37.541142 2,650 256 162 -896
2021-07-30 12:50:38 GMT 56.013233 37.545090 2,750 256 165 -896
2021-07-30 12:50:34 GMT 56.013977 37.550102 2,750 256 165 -896
2021-07-30 12:50:31 GMT 56.014481 37.553764 2,825 256 165 -896
2021-07-30 12:50:21 GMT 56.016495 37.567417 2,925 256 165 -896
2021-07-30 12:50:13 GMT 56.018078 37.578304 3,050 256 165 -896
2021-07-30 12:50:07 GMT 56.020218 37.593498 3,200 256 173 -384
2021-07-30 12:50:01 GMT 56.020405 37.594700 3,200 256 174 -384
2021-07-30 12:49:56 GMT 56.021660 37.603283 3,225 256 178 0
2021-07-30 12:49:52 GMT 56.022354 37.608116 3,250 256 177 -64
2021-07-30 12:49:49 GMT 56.022903 37.611862 3,250 256 178 0
2021-07-30 12:49:46 GMT 56.023453 37.615356 3,250 255 179 -64
2021-07-30 12:49:41 GMT 56.024734 37.623882 3,250 254 180 -128
2021-07-30 12:49:36 GMT 56.025620 37.629459 3,250 254 180 -256
2021-07-30 12:49:31 GMT 56.027115 37.638161 3,300 252 178 0
2021-07-30 12:49:27 GMT 56.028076 37.643654 3,275 252 178 -64
2021-07-30 12:49:22 GMT 56.029495 37.650894 3,300 251 178 384
2021-07-30 12:49:19 GMT 56.030041 37.653580 3,275 250 179 448
2021-07-30 12:49:16 GMT 56.030972 37.657871 3,250 250 180 192
2021-07-30 12:49:12 GMT 56.032135 37.663448 3,250 250 183 128
2021-07-30 12:49:09 GMT 56.032928 37.667484 3,250 251 185 -64
2021-07-30 12:49:02 GMT 56.034973 37.677784 3,400 249 194 -384
2021-07-30 12:48:58 GMT 56.036606 37.685509 3,275 249 194 -384
2021-07-30 12:48:55 GMT 56.037277 37.688599 3,275 249 197 -512
2021-07-30 12:48:52 GMT 56.038330 37.693092 3,400 245 199 -1216
2021-07-30 12:48:49 GMT 56.039383 37.697502 3,400 246 199 -1216
2021-07-30 12:48:44 GMT 56.041351 37.705330 3,400 246 199 -1216
2021-07-30 12:48:41 GMT 56.042377 37.708942 3,550 243 199 -1280
2021-07-30 12:48:38 GMT 56.044235 37.715233 3,600 238 201 -1088
2021-07-30 12:48:34 GMT 56.045261 37.718639 3,650 241 200 -1216
2021-07-30 12:48:31 GMT 56.046799 37.723186 3,700 238 200 -1088
2021-07-30 12:48:27 GMT 56.048943 37.729198 3,800 236 200 -1088
2021-07-30 12:48:23 GMT 56.051010 37.734459 3,850 234 202 -1024
2021-07-30 12:48:18 GMT 56.053970 37.741039 3,975 228 205 -640
2021-07-30 12:48:15 GMT 56.056576 37.746365 4,000 227 206 -576
2021-07-30 12:48:11 GMT 56.058746 37.750355 4,025 225 209 -512
2021-07-30 12:48:07 GMT 56.061745 37.755287 4,075 221 212 -896
2021-07-30 12:48:04 GMT 56.063652 37.758038 4,725 208 218 -1280
2021-07-30 12:48:00 GMT 56.067535 37.763172 4,200 214 216 -1472
2021-07-30 12:47:57 GMT 56.069229 37.765087 4,250 211 216 -1408
2021-07-30 12:47:53 GMT 56.072964 37.769024 4,350 210 217 -1344
2021-07-30 12:47:49 GMT 56.076591 37.772453 4,450 207 218 -1280
2021-07-30 12:47:46 GMT 56.079758 37.775242 4,525 204 219 -1408
2021-07-30 12:47:41 GMT 56.083923 37.778404 4,625 200 219 -1536
2021-07-30 12:47:38 GMT 56.086414 37.779839 4,675 197 220 -1536
2021-07-30 12:47:35 GMT 56.089966 37.781151 4,875 184 222 -1472
2021-07-30 12:47:32 GMT 56.093857 37.781651 4,875 184 222 -1472
2021-07-30 12:47:29 GMT 56.101135 37.779903 4,975 166 227 -1408
2021-07-30 12:47:24 GMT 56.101135 37.779903 5,050 160 229 -1280
2021-07-30 12:47:21 GMT 56.104248 37.778072 5,100 155 230 -1600
2021-07-30 12:47:17 GMT 56.109413 37.773228 5,225 145 234 -1600
2021-07-30 12:47:12 GMT 56.112488 37.769165 5,325 135 239 -1408
2021-07-30 12:47:08 GMT 56.115738 37.763504 5,425 130 242 -1280
2021-07-30 12:47:03 GMT 56.119904 37.754185 5,575 127 247 -2112
2021-07-30 12:46:58 GMT 56.122726 37.747562 5,700 127 248 -2432
2021-07-30 12:46:52 GMT 56.126907 37.737705 6,025 127 247 -2688
2021-07-30 12:46:48 GMT 56.130157 37.730045 6,150 127 246 -3200
2021-07-30 12:46:40 GMT 56.134785 37.719070 7,300 126 235 -3072
2021-07-30 12:46:36 GMT 56.137161 37.713486 6,775 126 235 -3072
2021-07-30 12:46:30 GMT 56.142326 37.701130 7,150 126 236 -2368
2021-07-30 12:46:27 GMT 56.144211 37.696423 7,275 125 238 -2176
2021-07-30 12:46:20 GMT 56.148010 37.686768 7,500 123 238 -2176
2021-07-30 12:46:16 GMT 56.150208 37.680359 7,775 78 253 -1344
2021-07-30 12:46:10 GMT 56.153091 37.669621 7,825 108 243 -896
2021-07-30 12:46:05 GMT 56.154465 37.661549 7,900 100 246 -1152
2021-07-30 12:46:00 GMT 56.155289 37.649483 8,100 83 251 -1408
2021-07-30 12:45:56 GMT 56.154942 37.640102 8,100 81 252 -1408
2021-07-30 12:45:52 GMT 56.154335 37.633240 8,175 79 253 -1472
2021-07-30 12:45:49 GMT 56.153637 37.627144 8,250 78 252 -1472
2021-07-30 12:45:45 GMT 56.152725 37.619019 8,350 78 252 -1472
2021-07-30 12:45:42 GMT 56.152054 37.612896 8,425 78 252 -1408
2021-07-30 12:45:39 GMT 56.151398 37.606617 8,500 78 252 -1472
2021-07-30 12:45:34 GMT 56.150391 37.597630 8,600 78 252 -1472
2021-07-30 12:45:30 GMT 56.149120 37.586033 8,750 78 253 -1408
2021-07-30 12:45:22 GMT 56.147491 37.570751 8,925 78 253 -1408
2021-07-30 12:45:19 GMT 56.146935 37.565861 8,975 78 253 -1408
2021-07-30 12:45:13 GMT 56.145538 37.553185 9,100 79 253 -1472
2021-07-30 12:45:09 GMT 56.144714 37.545113 9,200 79 254 -1408
2021-07-30 12:45:03 GMT 56.143204 37.531212 9,350 79 254 -1216
2021-07-30 12:44:58 GMT 56.142334 37.522720 9,450 79 255 -1216
2021-07-30 12:44:50 GMT 56.140594 37.506493 9,675 78 258 -1344
2021-07-30 12:44:47 GMT 56.139904 37.499859 9,675 78 258 -1344
2021-07-30 12:44:42 GMT 56.138718 37.489513 9,775 78 259 -1600
2021-07-30 12:44:39 GMT 56.137810 37.481575 9,875 76 259 -1536
2021-07-30 12:44:33 GMT 56.135899 37.468357 10,050 70 259 -1600
2021-07-30 12:44:29 GMT 56.133945 37.459087 10,175 65 260 -960
2021-07-30 12:44:22 GMT 56.130478 37.448067 10,250 53 262 -320
2021-07-30 12:44:18 GMT 56.127613 37.441490 10,300 46 261 -448
2021-07-30 12:44:10 GMT 56.120445 37.430161 10,350 31 257 -832
2021-07-30 12:44:07 GMT 56.118023 37.427418 10,375 30 256 -832
2021-07-30 12:44:01 GMT 56.110668 37.420204 10,475 25 256 -1280
2021-07-30 12:43:58 GMT 56.107269 37.417629 10,525 18 255 -1216
2021-07-30 12:43:49 GMT 56.096466 37.413773 10,725 2 257 -832
2021-07-30 12:43:46 GMT 56.094517 37.413685 10,750 357 257 -704
2021-07-30 12:43:42 GMT 56.088913 37.414524 10,800 352 258 -512
2021-07-30 12:43:39 GMT 56.085938 37.415604 10,825 344 261 -576
2021-07-30 12:43:36 GMT 56.083111 37.417030 10,850 339 262 -704
2021-07-30 12:43:32 GMT 56.077522 37.421234 10,925 331 265 -960
2021-07-30 12:43:29 GMT 56.074963 37.423813 10,950 327 265 -960
2021-07-30 12:43:26 GMT 56.070915 37.429131 11,000 322 267 -1024
2021-07-30 12:43:22 GMT 56.067699 37.434368 11,075 309 269 -1152
2021-07-30 12:43:16 GMT 56.063461 37.443821 11,175 304 270 -1024
2021-07-30 12:43:13 GMT 56.061184 37.450417 11,225 297 270 -1216
2021-07-30 12:43:09 GMT 56.059135 37.458572 11,325 290 271 -1088
2021-07-30 12:43:06 GMT 56.058296 37.463036 11,375 285 271 -1024
2021-07-30 12:43:03 GMT 56.057007 37.472034 11,425 282 272 -768
2021-07-30 12:42:58 GMT 56.055878 37.482777 11,525 281 273 -1152
2021-07-30 12:42:55 GMT 56.055367 37.487411 11,550 281 275 -1024
2021-07-30 12:42:52 GMT 56.054535 37.495338 11,675 281 286 -1152
2021-07-30 12:42:49 GMT 56.053688 37.503632 11,700 281 281 -1216
2021-07-30 12:42:46 GMT 56.052898 37.511189 11,750 281 283 -1216
2021-07-30 12:42:41 GMT 56.051697 37.522636 11,850 281 291 -1152
2021-07-30 12:42:38 GMT 56.051083 37.528610 11,900 281 291 -1152
2021-07-30 12:42:35 GMT 56.050430 37.534790 11,950 281 293 -1216
2021-07-30 12:42:30 GMT 56.049133 37.547108 12,075 281 303 -1280
2021-07-30 12:42:27 GMT 56.048473 37.553246 12,100 281 300 -1216
2021-07-30 12:42:24 GMT 56.047760 37.560257 12,150 281 303 -1280
2021-07-30 12:42:21 GMT 56.046753 37.569981 12,250 281 306 -1408
2021-07-30 12:42:18 GMT 56.045151 37.585144 12,325 281 311 -1792
2021-07-30 12:42:15 GMT 56.045151 37.585144 12,375 281 313 -1472
2021-07-30 12:42:07 GMT 56.043091 37.604622 12,575 281 317 -1280
2021-07-30 12:42:04 GMT 56.042313 37.612026 12,725 281 321 -1344
2021-07-30 12:42:01 GMT 56.041538 37.619419 12,675 281 321 -1408
2021-07-30 12:41:57 GMT 56.040329 37.630836 12,900 281 321 -1408
2021-07-30 12:41:54 GMT 56.039520 37.638493 12,875 281 327 -1408
2021-07-30 12:41:51 GMT 56.038513 37.648087 12,950 281 323 -1280
2021-07-30 12:41:47 GMT 56.037460 37.657887 13,025 281 324 -1408
2021-07-30 12:41:44 GMT 56.036591 37.666294 13,100 281 327 -1408
2021-07-30 12:41:39 GMT 56.035309 37.678528 13,225 281 328 -1408
2021-07-30 12:41:36 GMT 56.034557 37.685509 13,325 281 328 -1408
2021-07-30 12:41:33 GMT 56.033859 37.692459 13,325 281 328 -1408
2021-07-30 12:41:28 GMT 56.032471 37.705662 13,500 281 329 -1344
2021-07-30 12:41:25 GMT 56.031601 37.713650 13,500 281 329 -1280
2021-07-30 12:41:22 GMT 56.030777 37.721725 13,575 281 330 -1344
2021-07-30 12:41:16 GMT 56.028809 37.740452 13,725 281 331 -1344
2021-07-30 12:41:12 GMT 56.027939 37.748775 13,800 281 331 -1536
2021-07-30 12:41:08 GMT 56.026382 37.763340 14,000 281 331 -1472
2021-07-30 12:41:04 GMT 56.025696 37.769749 14,000 281 331 -1472
2021-07-30 12:41:01 GMT 56.024734 37.778904 14,075 281 331 -1536
2021-07-30 12:40:56 GMT 56.023293 37.793056 14,200 281 332 -1536
2021-07-30 12:40:52 GMT 56.022175 37.803268 14,300 281 332 -1536
2021-07-30 12:40:45 GMT 56.019848 37.825668 14,525 281 332 -1536
2021-07-30 12:40:41 GMT 56.019241 37.831253 14,575 281 333 -1536
2021-07-30 12:40:35 GMT 56.016998 37.852310 14,775 281 334 -1664
2021-07-30 12:40:32 GMT 56.016266 37.859386 14,850 281 335 -1728
2021-07-30 12:40:27 GMT 56.014938 37.871872 14,975 281 336 -1600
2021-07-30 12:40:24 GMT 56.014400 37.877171 15,075 281 336 -1600
2021-07-30 12:40:21 GMT 56.013329 37.887299 15,150 281 337 -1536
2021-07-30 12:40:17 GMT 56.011887 37.900684 15,300 281 338 -1472
2021-07-30 12:40:14 GMT 56.011047 37.908585 15,325 281 339 -1472
2021-07-30 12:40:08 GMT 56.009560 37.922916 15,475 281 342 -1664
2021-07-30 12:40:04 GMT 56.008255 37.934959 15,600 281 343 -1792
2021-07-30 12:40:01 GMT 56.006012 37.956100 15,725 281 361 -1728
2021-07-30 12:39:56 GMT 56.006012 37.956100 15,850 281 344 -2112
2021-07-30 12:39:53 GMT 56.004948 37.966602 15,925 281 344 -2176
2021-07-30 12:39:49 GMT 56.004066 37.974670 16,050 281 344 -2240
2021-07-30 12:39:46 GMT 56.002899 37.985828 16,375 281 343 -2240
2021-07-30 12:39:43 GMT 56.001846 37.995968 16,325 281 344 -2240
2021-07-30 12:39:39 GMT 56.001251 38.001793 16,400 281 344 -2176
2021-07-30 12:39:35 GMT 55.999641 38.016727 16,625 281 344 -1984
2021-07-30 12:39:32 GMT 55.998917 38.023514 16,625 281 344 -1984
2021-07-30 12:39:29 GMT 55.998291 38.029518 16,750 281 344 -1920
2021-07-30 12:39:26 GMT 55.997177 38.039909 16,900 281 345 -1664
2021-07-30 12:39:23 GMT 55.996307 38.048317 17,000 281 346 -1600
2021-07-30 12:39:19 GMT 55.995125 38.059132 17,075 281 347 -1664
2021-07-30 12:39:15 GMT 55.993881 38.070789 17,325 281 348 -1856
2021-07-30 12:39:11 GMT 55.992554 38.083191 17,325 281 349 -1920
2021-07-30 12:39:08 GMT 55.991962 38.089001 17,375 281 349 -1984
2021-07-30 12:39:04 GMT 55.990284 38.104534 17,575 281 350 -1984
2021-07-30 12:39:01 GMT 55.989681 38.110455 17,625 281 350 -1984
2021-07-30 12:38:58 GMT 55.988934 38.117325 17,700 281 351 -1920
2021-07-30 12:38:53 GMT 55.986980 38.135433 17,900 281 352 -1984
2021-07-30 12:38:49 GMT 55.985870 38.145863 18,025 281 352 -2112
2021-07-30 12:38:46 GMT 55.985092 38.153271 18,175 281 353 -2176
2021-07-30 12:38:43 GMT 55.984138 38.161957 18,225 281 353 -2240
2021-07-30 12:38:40 GMT 55.983444 38.168667 18,325 281 353 -2240
2021-07-30 12:38:37 GMT 55.982510 38.177402 18,425 281 353 -2176
2021-07-30 12:38:34 GMT 55.981430 38.187561 18,625 281 353 -2176
2021-07-30 12:38:31 GMT 55.980183 38.198776 18,700 281 353 -2112
2021-07-30 12:38:26 GMT 55.979004 38.209782 18,925 281 356 -1920
2021-07-30 12:38:23 GMT 55.978043 38.218777 19,175 281 354 -2048
2021-07-30 12:38:20 GMT 55.977112 38.227360 19,050 281 354 -2048
2021-07-30 12:38:17 GMT 55.976318 38.234570 19,200 282 355 -1920
2021-07-30 12:38:14 GMT 55.975021 38.246738 19,200 282 355 -1920
2021-07-30 12:38:11 GMT 55.974365 38.252678 19,400 281 356 -1920
2021-07-30 12:38:07 GMT 55.973190 38.263718 19,475 281 356 -1920
2021-07-30 12:38:04 GMT 55.970627 38.287106 19,800 281 357 -1984
2021-07-30 12:38:00 GMT 55.970627 38.287106 19,725 281 358 -2112
2021-07-30 12:37:54 GMT 55.969116 38.301003 20,000 281 358 -2176
2021-07-30 12:37:50 GMT 55.967987 38.311646 20,025 281 359 -2240
2021-07-30 12:37:47 GMT 55.966728 38.322971 20,175 281 359 -2368
2021-07-30 12:37:44 GMT 55.965820 38.331215 20,425 281 358 -2304
2021-07-30 12:37:41 GMT 55.964767 38.341038 20,425 281 358 -2432
2021-07-30 12:37:37 GMT 55.963470 38.352757 20,600 281 358 -2176
2021-07-30 12:37:34 GMT 55.962681 38.360310 21,300 282 363 -2048
2021-07-30 12:37:29 GMT 55.960831 38.377323 26,350 282 367 -2048
2021-07-30 12:37:26 GMT 55.960144 38.383400 20,950 282 360 -1728
2021-07-30 12:37:22 GMT 55.958679 38.396801 21,075 281 362 -1856
2021-07-30 12:37:18 GMT 55.957603 38.406658 21,175 282 362 -2048
2021-07-30 12:37:14 GMT 55.956207 38.419437 21,325 281 363 -2112
2021-07-30 12:37:10 GMT 55.954788 38.432590 21,475 281 364 -2112
2021-07-30 12:37:07 GMT 55.954285 38.437332 21,550 282 364 -2048
2021-07-30 12:37:04 GMT 55.953045 38.448715 21,675 282 364 -2112
2021-07-30 12:37:01 GMT 55.951042 38.466656 21,850 282 365 -2112
2021-07-30 12:36:58 GMT 55.951042 38.466656 26,350 282 367 -2048
2021-07-30 12:36:55 GMT 55.948837 38.486938 22,075 282 366 -2112
2021-07-30 12:36:50 GMT 55.948837 38.486938 22,125 282 366 -2176
2021-07-30 12:36:47 GMT 55.947502 38.498924 22,275 282 366 -2176
2021-07-30 12:36:44 GMT 55.946365 38.509163 22,400 282 367 -2112
2021-07-30 12:36:39 GMT 55.944805 38.523216 22,575 282 366 -2112
2021-07-30 12:36:35 GMT 55.942154 38.546780 24,550 282 376 -1856
2021-07-30 12:36:31 GMT 55.942154 38.546780 22,850 282 367 -2048
2021-07-30 12:36:27 GMT 55.940826 38.558598 26,350 282 384 -256
2021-07-30 12:36:23 GMT 55.939636 38.569252 23,100 282 368 -1856
2021-07-30 12:36:20 GMT 55.938675 38.577908 23,200 282 368 -1856
2021-07-30 12:36:16 GMT 55.937168 38.591106 23,325 282 369 -1856
2021-07-30 12:36:13 GMT 55.936295 38.598965 23,500 282 370 -1856
2021-07-30 12:36:09 GMT 55.934608 38.613770 23,600 282 371 -1856
2021-07-30 12:36:06 GMT 55.933685 38.621937 23,650 282 371 -1856
2021-07-30 12:36:03 GMT 55.932816 38.629513 23,725 282 372 -1856
2021-07-30 12:35:59 GMT 55.931675 38.639519 23,925 282 373 -1920
2021-07-30 12:35:56 GMT 55.930141 38.652992 23,975 282 374 -1984
2021-07-30 12:35:53 GMT 55.929440 38.659431 24,050 282 374 -1920
2021-07-30 12:35:49 GMT 55.927952 38.672646 24,200 282 375 -1856
2021-07-30 12:35:46 GMT 55.927113 38.679943 24,300 282 376 -1920
2021-07-30 12:35:43 GMT 55.924805 38.700089 24,425 282 376 -1920
2021-07-30 12:35:40 GMT 55.924805 38.700089 24,475 282 377 -1920
2021-07-30 12:35:36 GMT 55.923660 38.710075 24,625 282 377 -1856
2021-07-30 12:35:33 GMT 55.922318 38.721828 24,700 282 377 -1920
2021-07-30 12:35:29 GMT 55.921295 38.730927 24,875 282 378 -1856
2021-07-30 12:35:26 GMT 55.919998 38.742039 24,900 282 378 -1856
2021-07-30 12:35:22 GMT 55.918716 38.753357 25,475 282 379 -1856
2021-07-30 12:35:18 GMT 55.917385 38.764744 25,200 282 380 -1792
2021-07-30 12:35:15 GMT 55.916382 38.773746 25,250 282 380 -1792
2021-07-30 12:35:12 GMT 55.915237 38.783569 25,325 282 381 -1792
2021-07-30 12:35:06 GMT 55.913040 38.802711 25,500 282 382 -1728
2021-07-30 12:35:02 GMT 55.911705 38.814526 25,650 282 382 -1600
2021-07-30 12:34:59 GMT 55.909012 38.837753 25,775 282 383 -1536
2021-07-30 12:34:55 GMT 55.909012 38.837753 25,850 282 383 -1472
2021-07-30 12:34:51 GMT 55.907913 38.847324 25,900 282 383 -1472
2021-07-30 12:34:47 GMT 55.906166 38.862679 26,050 282 383 -1280
2021-07-30 12:34:44 GMT 55.904938 38.873291 26,100 282 383 -1024
2021-07-30 12:34:41 GMT 55.904259 38.879330 26,150 282 383 -832
2021-07-30 12:34:37 GMT 55.903015 38.889938 26,200 282 383 -512
2021-07-30 12:34:34 GMT 55.901917 38.899593 26,300 282 384 -448
2021-07-30 12:34:30 GMT 55.898392 38.930656 26,300 282 384 -128
2021-07-30 12:34:25 GMT 55.898392 38.930656 26,300 282 384 -448
2021-07-30 12:34:21 GMT 55.896927 38.943455 26,350 282 384 -320
2021-07-30 12:34:16 GMT 55.895271 38.957863 26,350 282 384 -192
2021-07-30 12:34:13 GMT 55.894089 38.968174 26,375 282 384 -128
2021-07-30 12:34:10 GMT 55.893318 38.975201 26,375 282 384 -128
2021-07-30 12:34:06 GMT 55.891617 38.989895 26,400 282 384 -128
2021-07-30 12:34:02 GMT 55.890339 39.000862 26,400 282 385 -128
2021-07-30 12:33:59 GMT 55.889465 39.008789 26,400 282 385 -128
2021-07-30 12:33:56 GMT 55.888504 39.016861 26,400 282 385 -192
2021-07-30 12:33:53 GMT 55.887177 39.028683 26,425 282 385 -128
2021-07-30 12:33:50 GMT 55.886101 39.037857 26,425 282 385 -128
2021-07-30 12:33:47 GMT 55.884247 39.054150 26,425 282 385 -128
2021-07-30 12:33:44 GMT 55.884247 39.054150 26,425 282 385 -64
2021-07-30 12:33:41 GMT 55.883011 39.064636 26,450 282 385 -128
2021-07-30 12:33:37 GMT 55.881493 39.078197 26,450 282 385 -128
2021-07-30 12:33:34 GMT 55.880722 39.084862 26,450 282 384 -128
2021-07-30 12:33:31 GMT 55.879257 39.097179 26,450 282 384 -192
2021-07-30 12:33:28 GMT 55.878605 39.102917 26,475 282 384 -128
2021-07-30 12:33:25 GMT 55.877060 39.116405 26,475 282 384 -128
2021-07-30 12:33:21 GMT 55.875443 39.130554 26,500 282 384 -128
2021-07-30 12:33:17 GMT 55.874092 39.141972 26,500 282 384 -64
2021-07-30 12:33:14 GMT 55.873390 39.148148 26,500 282 384 -64
2021-07-30 12:33:09 GMT 55.871250 39.166348 26,525 282 384 -128
2021-07-30 12:33:06 GMT 55.870560 39.172421 26,525 282 384 -128
2021-07-30 12:33:03 GMT 55.869621 39.180592 26,525 282 384 -128
2021-07-30 12:32:58 GMT 55.867573 39.198277 26,525 282 384 -128
2021-07-30 12:32:53 GMT 55.865982 39.211704 26,550 282 384 -128
2021-07-30 12:32:50 GMT 55.864334 39.225937 26,550 282 384 -128
2021-07-30 12:32:46 GMT 55.863243 39.235096 26,575 282 384 -128
2021-07-30 12:32:43 GMT 55.860218 39.261360 26,575 282 384 -128
2021-07-30 12:32:38 GMT 55.860218 39.261360 26,575 282 384 -64
2021-07-30 12:32:33 GMT 55.858589 39.275265 26,600 282 384 -64
2021-07-30 12:32:30 GMT 55.857471 39.284534 26,600 282 384 -128
2021-07-30 12:32:27 GMT 55.856415 39.293602 26,600 282 384 -128
2021-07-30 12:32:23 GMT 55.854950 39.306252 26,600 282 384 -192
2021-07-30 12:32:20 GMT 55.853851 39.315575 26,625 282 385 -128
2021-07-30 12:32:17 GMT 55.852772 39.324963 26,650 282 385 -128
2021-07-30 12:32:13 GMT 55.851105 39.339046 26,625 282 385 -128
2021-07-30 12:32:08 GMT 55.849594 39.351696 26,650 282 385 -128
2021-07-30 12:32:05 GMT 55.848221 39.363766 26,650 282 385 -128
2021-07-30 12:32:02 GMT 55.847324 39.371052 26,650 282 385 -64
2021-07-30 12:31:58 GMT 55.845612 39.385738 26,675 282 385 -64
2021-07-30 12:31:55 GMT 55.844925 39.391563 26,675 282 385 -64
2021-07-30 12:31:52 GMT 55.843647 39.402554 26,675 282 385 -128
2021-07-30 12:31:48 GMT 55.841923 39.417057 26,675 282 384 -128
2021-07-30 12:31:45 GMT 55.841354 39.421860 26,700 282 384 -64
2021-07-30 12:31:42 GMT 55.840153 39.432163 26,700 282 384 -64
2021-07-30 12:31:39 GMT 55.838882 39.442833 26,750 283 382 0
2021-07-30 12:31:36 GMT 55.837688 39.452847 26,700 282 384 -64
2021-07-30 12:31:32 GMT 55.833916 39.484947 26,725 282 385 -192
2021-07-30 12:31:25 GMT 55.833916 39.484947 26,725 282 386 -192
2021-07-30 12:31:21 GMT 55.832520 39.496849 26,725 282 386 -128
2021-07-30 12:31:18 GMT 55.831329 39.506752 26,750 282 386 -128
2021-07-30 12:31:14 GMT 55.830002 39.517990 26,800 282 387 -192
2021-07-30 12:31:11 GMT 55.828903 39.527225 26,750 282 387 -192
2021-07-30 12:31:06 GMT 55.826794 39.545116 26,775 282 387 -192
2021-07-30 12:31:02 GMT 55.825012 39.560184 26,775 282 387 -192
2021-07-30 12:30:56 GMT 55.823116 39.576187 26,800 282 387 -192
2021-07-30 12:30:53 GMT 55.822327 39.583054 26,800 282 387 -192
2021-07-30 12:30:50 GMT 55.821205 39.592323 26,825 282 386 -128
2021-07-30 12:30:46 GMT 55.819252 39.608719 26,825 282 385 -128
2021-07-30 12:30:43 GMT 55.818695 39.613693 26,825 282 384 -64
2021-07-30 12:30:40 GMT 55.817551 39.623108 26,850 282 384 -64
2021-07-30 12:30:34 GMT 55.814987 39.644581 26,850 283 383 -192
2021-07-30 12:30:30 GMT 55.813850 39.653950 26,850 283 382 64
2021-07-30 12:30:25 GMT 55.811874 39.670631 26,875 283 382 -256
2021-07-30 12:30:21 GMT 55.810268 39.683990 26,875 283 382 -192
2021-07-30 12:30:14 GMT 55.807938 39.702843 26,950 282 385 0
2021-07-30 12:30:11 GMT 55.806126 39.717464 26,900 282 386 -128
2021-07-30 12:30:06 GMT 55.804276 39.732388 26,925 283 385 -192
2021-07-30 12:30:03 GMT 55.803238 39.740555 26,925 283 385 -64
2021-07-30 12:30:00 GMT 55.802307 39.748119 26,950 282 386 -128
2021-07-30 12:29:54 GMT 55.800304 39.765873 26,950 281 385 0
2021-07-30 12:29:51 GMT 55.799286 39.775669 26,950 280 384 -128
2021-07-30 12:29:48 GMT 55.798443 39.785187 27,025 277 384 -896
2021-07-30 12:29:45 GMT 55.797653 39.794540 27,025 277 384 -896
2021-07-30 12:29:42 GMT 55.796906 39.804382 27,025 278 383 -1024
2021-07-30 12:29:39 GMT 55.796490 39.810760 27,075 277 384 -1024
2021-07-30 12:29:34 GMT 55.795464 39.829304 27,175 275 385 -960
2021-07-30 12:29:31 GMT 55.795139 39.836857 27,200 274 385 -960
2021-07-30 12:29:28 GMT 55.794765 39.848530 27,250 273 386 -1024
2021-07-30 12:29:25 GMT 55.794525 39.857815 27,350 272 387 -896
2021-07-30 12:29:22 GMT 55.794342 39.868301 27,375 271 387 -960
2021-07-30 12:29:17 GMT 55.794254 39.879856 27,475 271 390 -1024
2021-07-30 12:29:13 GMT 55.794159 39.895477 27,525 271 391 -1088
2021-07-30 12:29:10 GMT 55.794113 39.904404 27,525 271 391 -1088
2021-07-30 12:29:07 GMT 55.794067 39.914017 27,600 271 391 -1024
2021-07-30 12:29:03 GMT 55.793976 39.926979 27,675 271 393 -960
2021-07-30 12:29:00 GMT 55.793930 39.935387 27,725 271 393 -1024
2021-07-30 12:28:57 GMT 55.793839 39.947289 27,775 271 394 -1024
2021-07-30 12:28:53 GMT 55.793747 39.968929 27,875 271 407 -1600
2021-07-30 12:28:50 GMT 55.793747 39.968929 27,900 271 396 -1088
2021-07-30 12:28:47 GMT 55.793655 39.977669 27,950 271 396 -1024
2021-07-30 12:28:42 GMT 55.793556 39.996071 28,125 271 396 -1216
2021-07-30 12:28:39 GMT 55.793510 40.004139 28,175 271 395 -960
2021-07-30 12:28:36 GMT 55.793472 40.013706 28,150 271 395 -640
2021-07-30 12:28:32 GMT 55.793369 40.026711 28,200 271 394 -1024
2021-07-30 12:28:29 GMT 55.793289 40.039505 28,275 271 394 -960
2021-07-30 12:28:25 GMT 55.793198 40.049496 28,325 271 394 -896
2021-07-30 12:28:21 GMT 55.793091 40.065422 28,400 271 395 -1024
2021-07-30 12:28:17 GMT 55.793041 40.074863 28,475 271 397 -896
2021-07-30 12:28:13 GMT 55.792877 40.090858 28,525 271 397 -896
2021-07-30 12:28:09 GMT 55.792809 40.104389 28,625 271 399 -896
2021-07-30 12:28:03 GMT 55.792580 40.132282 28,750 271 402 -1216
2021-07-30 12:28:00 GMT 55.792580 40.132282 28,775 271 402 -1216
2021-07-30 12:27:57 GMT 55.792484 40.142498 28,800 271 403 -1472
2021-07-30 12:27:53 GMT 55.792393 40.153999 28,875 271 404 -1472
2021-07-30 12:27:46 GMT 55.792191 40.180080 29,075 271 406 -1600
2021-07-30 12:27:42 GMT 55.792099 40.189072 29,150 271 407 -1600
2021-07-30 12:27:38 GMT 55.791973 40.205841 29,350 271 407 -1600
2021-07-30 12:27:35 GMT 55.791870 40.214039 29,425 271 407 -1664
2021-07-30 12:27:32 GMT 55.791832 40.222836 29,425 271 407 -1664
2021-07-30 12:27:26 GMT 55.791649 40.242493 29,575 271 407 -1600
2021-07-30 12:27:23 GMT 55.791504 40.255985 29,675 271 407 -1600
2021-07-30 12:27:17 GMT 55.791321 40.276134 29,850 271 407 -1408
2021-07-30 12:27:13 GMT 55.791229 40.288944 30,000 271 407 -1536
2021-07-30 12:27:07 GMT 55.791046 40.309254 30,150 271 405 -2624
2021-07-30 12:27:04 GMT 55.790947 40.317333 30,200 271 404 -3072
2021-07-30 12:27:01 GMT 55.790901 40.324974 30,300 271 402 -3328
2021-07-30 12:26:56 GMT 55.790726 40.346043 30,650 272 398 -2624
2021-07-30 12:26:52 GMT 55.790623 40.356300 30,775 272 398 -2624
2021-07-30 12:26:47 GMT 55.790451 40.375340 31,050 272 397 -2880
2021-07-30 12:26:44 GMT 55.790405 40.380581 31,150 272 397 -2624
2021-07-30 12:26:41 GMT 55.790298 40.390205 31,275 272 397 -2624
2021-07-30 12:26:37 GMT 55.790112 40.409348 31,525 272 396 -2816
2021-07-30 12:26:34 GMT 55.790039 40.417286 31,650 272 396 -2688
2021-07-30 12:26:31 GMT 55.789993 40.424026 31,750 272 396 -2624
2021-07-30 12:26:26 GMT 55.789810 40.441921 31,975 272 396 -2368
2021-07-30 12:26:23 GMT 55.789719 40.449997 32,075 272 396 -2112
2021-07-30 12:26:16 GMT 55.789490 40.474300 32,350 272 397 -2304
2021-07-30 12:26:11 GMT 55.789307 40.490612 32,550 272 398 -2496
2021-07-30 12:26:06 GMT 55.789131 40.509598 32,800 272 397 -2944
2021-07-30 12:26:01 GMT 55.788994 40.522640 33,000 272 397 -2944
2021-07-30 12:25:55 GMT 55.788757 40.542297 33,300 272 396 -3072
2021-07-30 12:25:51 GMT 55.788620 40.555283 33,475 272 395 -3264
2021-07-30 12:25:45 GMT 55.788437 40.573456 33,875 272 392 -1856
2021-07-30 12:25:40 GMT 55.788254 40.588074 33,900 272 392 -1344
2021-07-30 12:25:34 GMT 55.788071 40.606968 34,000 272 392 0
2021-07-30 12:25:31 GMT 55.787888 40.621449 34,000 272 392 0
2021-07-30 12:25:24 GMT 55.787598 40.644691 34,000 272 392 0
2021-07-30 12:25:20 GMT 55.787521 40.654160 34,000 272 392 -64
2021-07-30 12:25:13 GMT 55.787224 40.676453 34,000 272 392 -64
2021-07-30 12:25:10 GMT 55.787132 40.686405 34,000 272 391 0
2021-07-30 12:25:06 GMT 55.786945 40.698593 34,025 272 391 0
2021-07-30 12:25:03 GMT 55.786835 40.708008 34,025 272 391 0
2021-07-30 12:25:00 GMT 55.786713 40.718422 34,025 272 391 64
2021-07-30 12:24:54 GMT 55.786423 40.740967 34,000 272 391 0
2021-07-30 12:24:49 GMT 55.786285 40.752453 34,000 272 391 -64
2021-07-30 12:24:43 GMT 55.786060 40.772152 34,000 272 391 0
2021-07-30 12:24:39 GMT 55.785873 40.785885 34,000 272 391 0
2021-07-30 12:24:32 GMT 55.785595 40.806999 34,000 272 392 0
2021-07-30 12:24:28 GMT 55.785416 40.819370 34,000 272 392 0
2021-07-30 12:24:22 GMT 55.785130 40.841675 34,000 272 392 0
2021-07-30 12:24:17 GMT 55.784943 40.854893 34,000 272 393 0
2021-07-30 12:24:12 GMT 55.784710 40.872231 34,000 272 392 64
2021-07-30 12:24:08 GMT 55.784477 40.886993 34,000 272 392 64
2021-07-30 12:24:02 GMT 55.784199 40.905964 34,000 272 392 64
2021-07-30 12:23:59 GMT 55.784088 40.915417 34,000 272 392 -64
2021-07-30 12:23:56 GMT 55.783997 40.921825 34,000 272 392 0
2021-07-30 12:23:51 GMT 55.783779 40.938065 34,000 272 392 -64
2021-07-30 12:23:48 GMT 55.783630 40.948128 34,000 272 391 0
2021-07-30 12:23:45 GMT 55.783447 40.959694 34,000 272 391 0
2021-07-30 12:23:41 GMT 55.783264 40.972179 34,000 272 391 0
2021-07-30 12:23:38 GMT 55.783081 40.984997 34,000 272 391 -64
2021-07-30 12:23:31 GMT 55.782848 41.003983 34,000 272 389 -64
2021-07-30 12:23:27 GMT 55.782661 41.016338 34,025 272 388 -64
2021-07-30 12:23:23 GMT 55.782429 41.029732 34,025 272 388 64
2021-07-30 12:23:19 GMT 55.782211 41.043839 34,025 272 387 0
2021-07-30 12:23:16 GMT 55.782150 41.049042 34,025 272 386 0
2021-07-30 12:23:11 GMT 55.781845 41.069389 34,000 272 386 64
2021-07-30 12:23:06 GMT 55.781616 41.083626 34,000 272 385 -64
2021-07-30 12:23:02 GMT 55.781433 41.096523 34,000 272 385 0
2021-07-30 12:22:59 GMT 55.781361 41.102688 34,025 272 385 192
2021-07-30 12:22:56 GMT 55.781158 41.114834 34,000 272 385 -64
2021-07-30 12:22:49 GMT 55.780838 41.134060 34,000 272 385 64
2021-07-30 12:22:46 GMT 55.780659 41.147747 34,000 272 386 64
2021-07-30 12:22:39 GMT 55.780334 41.166603 34,000 272 386 -192
2021-07-30 12:22:35 GMT 55.780106 41.181087 34,000 272 386 0
2021-07-30 12:22:29 GMT 55.779785 41.201309 34,000 272 386 -64
2021-07-30 12:22:25 GMT 55.779556 41.213963 34,000 272 386 0
2021-07-30 12:22:22 GMT 55.779404 41.224220 34,000 272 386 0
2021-07-30 12:22:17 GMT 55.779190 41.237350 34,000 272 387 0
2021-07-30 12:22:12 GMT 55.778938 41.252632 34,000 272 385 -64
2021-07-30 12:22:09 GMT 55.778660 41.268681 34,025 272 385 64
2021-07-30 12:22:06 GMT 55.778595 41.271725 34,000 272 387 0
2021-07-30 12:22:03 GMT 55.778427 41.281040 34,000 272 385 -128
2021-07-30 12:21:58 GMT 55.778149 41.298637 34,025 272 385 0
2021-07-30 12:21:54 GMT 55.777908 41.312672 34,025 272 385 128
2021-07-30 12:21:50 GMT 55.777725 41.322159 34,025 272 385 128
2021-07-30 12:21:47 GMT 55.777496 41.334476 34,000 272 386 64
2021-07-30 12:21:39 GMT 55.777122 41.357346 34,000 272 386 0
2021-07-30 12:21:35 GMT 55.776936 41.368420 34,000 272 387 0
2021-07-30 12:21:31 GMT 55.776627 41.384083 34,000 272 387 0
2021-07-30 12:21:26 GMT 55.776379 41.398804 34,000 272 387 0
2021-07-30 12:21:20 GMT 55.776005 41.418457 34,000 272 387 -64
2021-07-30 12:21:14 GMT 55.775711 41.435104 34,000 272 384 0
2021-07-30 12:21:09 GMT 55.775436 41.450916 34,025 272 387 64
2021-07-30 12:21:05 GMT 55.775166 41.464031 34,025 272 387 64
2021-07-30 12:20:59 GMT 55.774796 41.484123 34,000 272 386 64
2021-07-30 12:20:55 GMT 55.774521 41.499023 34,000 272 386 0
2021-07-30 12:20:48 GMT 55.774189 41.517506 34,000 272 386 0
2021-07-30 12:20:45 GMT 55.774002 41.526604 34,000 272 384 0
2021-07-30 12:20:38 GMT 55.773514 41.551708 34,000 272 385 64
2021-07-30 12:20:34 GMT 55.773354 41.560677 34,000 272 384 0
2021-07-30 12:20:29 GMT 55.772980 41.579819 34,000 272 384 0
2021-07-30 12:20:24 GMT 55.772747 41.593037 34,000 272 384 0
2021-07-30 12:20:18 GMT 55.772278 41.616127 34,000 272 385 0
2021-07-30 12:20:14 GMT 55.772049 41.629360 34,000 273 386 0
2021-07-30 12:20:07 GMT 55.771675 41.648396 34,000 273 385 -64
2021-07-30 12:20:04 GMT 55.771500 41.656162 34,000 273 385 0
2021-07-30 12:19:58 GMT 55.771072 41.676807 34,000 273 386 64
2021-07-30 12:19:54 GMT 55.770840 41.689426 34,000 273 386 0
2021-07-30 12:19:49 GMT 55.770466 41.708393 34,000 273 386 -64
2021-07-30 12:19:44 GMT 55.770233 41.717834 34,000 273 386 0
2021-07-30 12:19:41 GMT 55.769989 41.730320 34,000 273 386 128
2021-07-30 12:19:36 GMT 55.769669 41.746048 34,025 273 386 128
2021-07-30 12:19:33 GMT 55.769489 41.755688 34,000 273 386 128
2021-07-30 12:19:26 GMT 55.768974 41.779716 34,000 273 387 64
2021-07-30 12:19:23 GMT 55.768799 41.787830 34,000 273 387 192
2021-07-30 12:19:12 GMT 55.768089 41.820576 34,000 273 388 -64
2021-07-30 12:19:06 GMT 55.767673 41.840229 34,000 273 388 -64
2021-07-30 12:19:02 GMT 55.767380 41.854416 34,000 273 388 64
2021-07-30 12:18:57 GMT 55.766975 41.872585 34,000 273 388 0
2021-07-30 12:18:51 GMT 55.766693 41.886234 34,000 273 388 -128
2021-07-30 12:18:44 GMT 55.766136 41.910694 34,000 273 388 0
2021-07-30 12:18:41 GMT 55.765961 41.918167 34,000 273 388 0
2021-07-30 12:18:34 GMT 55.765392 41.945286 34,000 273 388 -64
2021-07-30 12:18:31 GMT 55.765251 41.951294 34,000 273 388 -64
2021-07-30 12:18:21 GMT 55.764496 41.984169 34,025 273 388 0
2021-07-30 12:18:12 GMT 55.763855 42.012920 34,000 273 389 0
2021-07-30 12:18:09 GMT 55.763622 42.022449 34,000 273 389 128
2021-07-30 12:18:01 GMT 55.763077 42.045841 34,000 273 392 64
2021-07-30 12:17:55 GMT 55.762646 42.064590 34,000 273 392 0
2021-07-30 12:17:51 GMT 55.761715 42.103386 34,000 273 392 64
2021-07-30 12:17:40 GMT 55.761433 42.114632 34,000 273 392 64
2021-07-30 12:17:28 GMT 55.760597 42.151196 34,000 273 392 0
2021-07-30 12:17:21 GMT 55.760010 42.173767 34,000 273 391 64
2021-07-30 12:17:18 GMT 55.759758 42.185097 34,000 273 391 64
2021-07-30 12:17:10 GMT 55.759060 42.212906 34,000 273 391 64
2021-07-30 12:16:59 GMT 55.758179 42.249588 34,000 273 391 64
2021-07-30 12:16:47 GMT 55.757339 42.282345 34,000 273 391 -64
2021-07-30 12:16:38 GMT 55.756126 42.329376 34,000 273 391 -64
2021-07-30 12:16:29 GMT 55.755798 42.342308 34,000 273 390 64
2021-07-30 12:16:26 GMT 55.755478 42.355373 34,000 273 390 64
2021-07-30 12:16:18 GMT 55.754917 42.376583 34,000 273 390 0
2021-07-30 12:16:11 GMT 55.754219 42.402763 34,000 273 390 -64
2021-07-30 12:16:06 GMT 55.753967 42.412720 34,000 273 389 64
2021-07-30 12:15:58 GMT 55.753147 42.442760 34,000 273 389 0
2021-07-30 12:15:55 GMT 55.752914 42.452972 34,000 273 388 64
2021-07-30 12:15:48 GMT 55.752319 42.474728 34,000 273 388 0
2021-07-30 12:15:40 GMT 55.751633 42.500111 34,000 273 388 -64
2021-07-30 12:15:37 GMT 55.751129 42.519337 34,000 273 384 -64
2021-07-30 12:15:29 GMT 55.750774 42.532196 34,000 273 386 0
2021-07-30 12:15:24 GMT 55.750259 42.550632 34,000 273 385 0
2021-07-30 12:15:15 GMT 55.749561 42.576572 34,000 273 384 64
2021-07-30 12:15:07 GMT 55.748817 42.602921 34,000 273 383 0
2021-07-30 12:15:03 GMT 55.748539 42.612617 34,000 273 383 64
2021-07-30 12:14:54 GMT 55.747787 42.640018 34,000 273 381 0
2021-07-30 12:14:46 GMT 55.746048 42.701694 34,000 273 380 64
2021-07-30 12:14:35 GMT 55.746048 42.701694 34,000 273 380 0
2021-07-30 12:14:29 GMT 55.745560 42.719219 34,000 273 380 64
2021-07-30 12:14:26 GMT 55.745235 42.731068 34,000 273 379 -64
2021-07-30 12:14:18 GMT 55.744488 42.756126 34,000 274 379 64
2021-07-30 12:14:14 GMT 55.744209 42.765141 34,000 274 379 0
2021-07-30 12:14:11 GMT 55.743977 42.773808 34,000 274 379 64
2021-07-30 12:14:04 GMT 55.743324 42.795525 34,000 274 379 128
2021-07-30 12:13:56 GMT 55.742580 42.821877 34,000 274 379 0
2021-07-30 12:13:53 GMT 55.742302 42.831490 34,000 274 379 64
2021-07-30 12:13:43 GMT 55.741425 42.860497 34,000 274 380 0
2021-07-30 12:13:33 GMT 55.740486 42.891483 34,000 274 381 0
2021-07-30 12:13:24 GMT 55.739548 42.922752 34,025 274 381 -192
2021-07-30 12:13:13 GMT 55.738495 42.956459 34,025 274 382 64
2021-07-30 12:13:04 GMT 55.737534 42.987419 34,025 274 384 64
2021-07-30 12:12:53 GMT 55.736576 43.018684 34,000 274 385 64
2021-07-30 12:12:45 GMT 55.735783 43.043232 34,000 274 386 -64
2021-07-30 12:12:42 GMT 55.735550 43.051472 34,000 274 387 0
2021-07-30 12:12:36 GMT 55.734806 43.073959 34,000 274 388 64
2021-07-30 12:12:33 GMT 55.734512 43.083885 34,000 274 388 0
2021-07-30 12:12:22 GMT 55.733410 43.117390 34,000 274 388 0
2021-07-30 12:12:11 GMT 55.732361 43.149803 34,000 274 387 -128
2021-07-30 12:12:01 GMT 55.731316 43.182106 34,000 274 386 64
2021-07-30 12:11:52 GMT 55.730198 43.214550 34,000 274 385 0
2021-07-30 12:11:41 GMT 55.729156 43.245850 34,000 274 385 -192
2021-07-30 12:11:31 GMT 55.728058 43.277561 34,025 274 384 192
2021-07-30 12:11:24 GMT 55.727325 43.299534 34,025 274 383 128
2021-07-30 12:11:20 GMT 55.726913 43.310852 34,025 273 387 0
2021-07-30 12:11:14 GMT 55.726192 43.331108 34,025 274 385 128
2021-07-30 12:11:09 GMT 55.725731 43.345268 34,000 274 385 -64
2021-07-30 12:11:00 GMT 55.724659 43.375568 34,025 274 386 64
2021-07-30 12:10:50 GMT 55.723572 43.407230 34,000 274 387 0
2021-07-30 12:10:40 GMT 55.722469 43.440285 34,000 274 387 64
2021-07-30 12:10:33 GMT 55.721817 43.459599 34,000 274 387 0
2021-07-30 12:10:29 GMT 55.721466 43.472401 34,000 273 387 -128
2021-07-30 12:10:18 GMT 55.720562 43.505775 34,025 273 386 128
2021-07-30 12:10:13 GMT 55.720184 43.523254 34,000 272 386 0
2021-07-30 12:10:08 GMT 55.719955 43.537018 34,000 263 381 64
2021-07-30 12:10:02 GMT 55.719769 43.556156 34,000 270 384 64
2021-07-30 12:09:59 GMT 55.719818 43.570114 34,000 263 381 64
2021-07-30 12:09:51 GMT 55.720184 43.591419 34,000 268 383 -128
2021-07-30 12:09:48 GMT 55.720516 43.602245 34,000 263 381 64
2021-07-30 12:09:42 GMT 55.721329 43.620132 34,025 265 382 0
2021-07-30 12:09:37 GMT 55.722191 43.635204 34,025 264 381 64
2021-07-30 12:09:31 GMT 55.723434 43.652676 34,025 263 381 128
2021-07-30 12:09:26 GMT 55.724808 43.670238 34,000 263 381 0
2021-07-30 12:09:21 GMT 55.725815 43.683556 34,000 263 381 -64
2021-07-30 12:09:17 GMT 55.726940 43.697948 34,000 263 382 -64
2021-07-30 12:09:10 GMT 55.728569 43.718033 34,000 263 382 64
2021-07-30 12:09:06 GMT 55.729546 43.730476 34,000 262 382 64
2021-07-30 12:09:00 GMT 55.730988 43.748760 34,000 262 383 -192
2021-07-30 12:08:56 GMT 55.732132 43.762539 34,000 262 383 256
2021-07-30 12:08:51 GMT 55.733551 43.780270 34,000 262 383 64
2021-07-30 12:08:40 GMT 55.736206 43.813229 34,000 262 383 -128
2021-07-30 12:08:30 GMT 55.738678 43.843605 34,000 262 382 128
2021-07-30 12:08:19 GMT 55.741425 43.876732 34,000 262 382 64
2021-07-30 12:08:15 GMT 55.742813 43.892956 34,000 262 381 0
2021-07-30 12:08:10 GMT 55.744125 43.909107 34,000 262 381 0
2021-07-30 12:08:03 GMT 55.745636 43.926670 34,000 262 381 -128
2021-07-30 12:07:58 GMT 55.747002 43.942822 34,000 262 381 0
2021-07-30 12:07:49 GMT 55.749424 43.972179 34,000 262 380 0
2021-07-30 12:07:38 GMT 55.752075 44.004623 34,025 262 381 64
2021-07-30 12:07:28 GMT 55.754543 44.035522 34,000 262 382 0
2021-07-30 12:07:25 GMT 55.755569 44.048309 34,000 262 383 64
2021-07-30 12:07:17 GMT 55.757198 44.069080 34,000 262 383 64
2021-07-30 12:07:14 GMT 55.757904 44.077980 34,000 263 384 0
2021-07-30 12:07:08 GMT 55.759644 44.099789 34,000 262 384 0
2021-07-30 12:07:03 GMT 55.760559 44.111023 34,000 262 384 0
2021-07-30 12:06:56 GMT 55.762299 44.132828 34,000 262 384 -64
2021-07-30 12:06:52 GMT 55.763294 44.145126 34,000 262 384 64
2021-07-30 12:06:47 GMT 55.764816 44.163708 34,000 262 384 64
2021-07-30 12:06:44 GMT 55.765625 44.173450 34,000 262 383 -64
2021-07-30 12:06:36 GMT 55.767609 44.198250 34,000 262 383 -64
2021-07-30 12:06:33 GMT 55.768250 44.206238 34,000 262 382 -64
2021-07-30 12:06:30 GMT 55.769119 44.217140 34,000 262 382 -64
2021-07-30 12:06:26 GMT 55.770035 44.228294 34,000 262 381 -64
2021-07-30 12:06:22 GMT 55.770977 44.239883 34,000 262 381 0
2021-07-30 12:06:16 GMT 55.772507 44.259171 34,025 262 380 -64
2021-07-30 12:06:12 GMT 55.773514 44.271240 34,025 262 380 128
2021-07-30 12:06:06 GMT 55.775253 44.292130 34,025 262 380 64
2021-07-30 12:06:03 GMT 55.776096 44.302456 34,000 262 379 -64
2021-07-30 12:05:58 GMT 55.777168 44.314728 34,000 262 379 128
2021-07-30 12:05:55 GMT 55.777821 44.322968 34,025 262 379 128
2021-07-30 12:05:52 GMT 55.778687 44.332996 34,000 262 379 -64
2021-07-30 12:05:44 GMT 55.780613 44.356182 34,000 262 380 0
2021-07-30 12:05:40 GMT 55.781872 44.370949 34,000 262 380 0
2021-07-30 12:05:34 GMT 55.783173 44.386181 34,000 262 380 0
2021-07-30 12:05:29 GMT 55.784500 44.401913 34,000 262 380 0
2021-07-30 12:05:25 GMT 55.785828 44.418068 34,000 262 381 0
2021-07-30 12:05:20 GMT 55.786926 44.430874 34,000 262 381 0
2021-07-30 12:05:14 GMT 55.788574 44.450352 34,000 262 381 0
2021-07-30 12:05:11 GMT 55.789215 44.458340 34,000 262 381 64
2021-07-30 12:05:04 GMT 55.791134 44.481323 34,000 262 381 64
2021-07-30 12:04:59 GMT 55.792439 44.496429 34,000 262 381 -64
2021-07-30 12:04:54 GMT 55.793880 44.513683 34,000 262 381 64
2021-07-30 12:04:50 GMT 55.794674 44.523296 34,000 262 381 0
2021-07-30 12:04:43 GMT 55.796539 44.544483 34,000 262 381 0
2021-07-30 12:04:40 GMT 55.797592 44.556469 34,000 262 380 -128
2021-07-30 12:04:36 GMT 55.798443 44.566212 34,000 262 380 0
2021-07-30 12:04:33 GMT 55.799286 44.575863 34,000 262 380 -128
2021-07-30 12:04:29 GMT 55.800293 44.586929 34,025 262 379 64
2021-07-30 12:04:22 GMT 55.802166 44.608356 34,000 262 379 64
2021-07-30 12:04:18 GMT 55.803379 44.622433 34,000 262 379 64
2021-07-30 12:04:12 GMT 55.804962 44.641483 34,000 262 379 64
2021-07-30 12:04:08 GMT 55.805923 44.652683 34,000 262 379 -64
2021-07-30 12:03:59 GMT 55.808212 44.679398 34,000 262 379 0
2021-07-30 12:03:52 GMT 55.810226 44.703285 34,000 262 378 64
2021-07-30 12:03:48 GMT 55.811108 44.713242 34,000 262 378 64
2021-07-30 12:03:41 GMT 55.812969 44.735298 34,000 262 378 0
2021-07-30 12:03:38 GMT 55.813660 44.743153 34,000 262 378 64
2021-07-30 12:03:29 GMT 55.816414 44.774525 34,000 262 378 64
2021-07-30 12:03:25 GMT 55.817390 44.785595 34,000 262 378 64
2021-07-30 12:03:20 GMT 55.818466 44.798252 34,000 262 378 0
2021-07-30 12:03:17 GMT 55.819298 44.807652 34,000 262 378 64
2021-07-30 12:03:14 GMT 55.820206 44.817558 34,000 262 378 -64
2021-07-30 12:03:10 GMT 55.821442 44.831512 34,000 262 378 -64
2021-07-30 12:03:07 GMT 55.822186 44.839752 34,000 261 378 -128
2021-07-30 12:03:04 GMT 55.822929 44.848423 34,000 261 378 64
2021-07-30 12:02:57 GMT 55.824966 44.870579 34,000 261 378 -64
2021-07-30 12:02:48 GMT 55.827805 44.901539 34,000 261 379 0
2021-07-30 12:02:37 GMT 55.830688 44.931835 34,025 261 378 64
2021-07-30 12:02:27 GMT 55.833309 44.963009 34,000 264 379 64
2021-07-30 12:02:16 GMT 55.834946 44.995670 34,000 268 380 0
2021-07-30 12:02:07 GMT 55.834991 45.026882 34,000 273 380 0
2021-07-30 12:01:58 GMT 55.834351 45.055180 34,000 273 379 -128
2021-07-30 12:01:55 GMT 55.834259 45.061092 34,000 273 379 128
2021-07-30 12:01:52 GMT 55.834030 45.070995 34,000 273 379 64
2021-07-30 12:01:45 GMT 55.833546 45.092609 34,000 273 378 128
2021-07-30 12:01:42 GMT 55.833309 45.101879 34,000 273 378 64
2021-07-30 12:01:35 GMT 55.832794 45.123428 34,000 273 378 0
2021-07-30 12:01:32 GMT 55.832615 45.132523 34,025 273 377 128
2021-07-30 12:01:26 GMT 55.832100 45.154495 34,025 273 377 128
2021-07-30 12:01:23 GMT 55.831879 45.163296 34,000 273 377 0
2021-07-30 12:01:15 GMT 55.831356 45.185993 34,025 273 377 0
2021-07-30 12:01:12 GMT 55.831169 45.194321 34,000 273 377 0
2021-07-30 12:01:05 GMT 55.830612 45.217152 34,000 273 377 0
2021-07-30 12:00:54 GMT 55.829865 45.249107 34,025 273 377 64
2021-07-30 12:00:45 GMT 55.829132 45.280067 34,000 273 377 -128
2021-07-30 12:00:36 GMT 55.828400 45.309448 34,025 273 378 64
2021-07-30 12:00:33 GMT 55.828281 45.314224 34,000 273 378 64
2021-07-30 12:00:24 GMT 55.827530 45.344486 34,000 273 379 -128
2021-07-30 12:00:14 GMT 55.826748 45.375683 34,000 273 379 128
2021-07-30 12:00:04 GMT 55.825909 45.409241 34,000 273 380 64
2021-07-30 11:59:53 GMT 55.825104 45.439869 34,000 273 379 0
2021-07-30 11:59:42 GMT 55.824280 45.471912 34,000 273 379 0
2021-07-30 11:59:32 GMT 55.823395 45.506229 34,000 273 378 -64
2021-07-30 11:59:23 GMT 55.821812 45.565022 34,000 273 378 0
2021-07-30 11:59:12 GMT 55.821812 45.565022 34,000 273 378 -64
2021-07-30 11:59:03 GMT 55.820114 45.628883 34,000 273 378 -64
2021-07-30 11:58:52 GMT 55.820114 45.628883 34,000 273 378 0
2021-07-30 11:58:38 GMT 55.818924 45.671581 34,000 273 378 64
2021-07-30 11:58:27 GMT 55.818008 45.705956 34,000 273 378 0
2021-07-30 11:58:21 GMT 55.817390 45.727158 34,000 273 378 0
2021-07-30 11:58:10 GMT 55.816544 45.756725 34,000 273 377 0
2021-07-30 11:58:00 GMT 55.814598 45.825863 34,000 273 376 0
2021-07-30 11:57:48 GMT 55.814598 45.825863 34,000 273 374 0
2021-07-30 11:57:37 GMT 55.813660 45.858849 34,000 273 374 0
2021-07-30 11:57:29 GMT 55.812920 45.883541 34,000 273 374 -64
2021-07-30 11:57:18 GMT 55.811852 45.919933 34,000 274 374 -64
2021-07-30 11:56:38 GMT 55.808220 46.041553 34,000 274 374 0
2021-07-30 11:56:22 GMT 55.806702 46.090393 34,000 274 374 64
2021-07-30 11:56:16 GMT 55.806152 46.107204 34,000 274 374 0
2021-07-30 11:56:01 GMT 55.804680 46.154510 34,000 274 374 -64
2021-07-30 11:55:57 GMT 55.804310 46.166439 34,000 274 374 0
2021-07-30 11:55:46 GMT 55.803223 46.199673 34,000 274 374 0
2021-07-30 11:55:36 GMT 55.802261 46.229954 34,000 274 374 0
2021-07-30 11:55:26 GMT 55.801235 46.261456 34,000 274 374 0
2021-07-30 11:55:15 GMT 55.800213 46.293640 34,000 274 374 64
2021-07-30 11:55:05 GMT 55.799141 46.326599 34,000 274 374 64
2021-07-30 11:54:54 GMT 55.798141 46.357979 34,000 274 374 -64
2021-07-30 11:54:44 GMT 55.797234 46.387882 34,000 274 374 64
2021-07-30 11:54:34 GMT 55.796219 46.418320 34,000 275 374 -192
2021-07-30 11:54:25 GMT 55.794720 46.449593 34,025 276 374 -128
2021-07-30 11:54:13 GMT 55.792343 46.484528 34,050 278 375 128
2021-07-30 11:54:03 GMT 55.789925 46.513195 34,025 280 378 64
2021-07-30 11:53:54 GMT 55.786789 46.544327 34,000 281 384 768
2021-07-30 11:53:43 GMT 55.783546 46.575768 33,950 281 392 448
2021-07-30 11:53:33 GMT 55.780148 46.608982 33,825 281 393 1088
2021-07-30 11:53:23 GMT 55.776844 46.641083 33,625 281 394 960
2021-07-30 11:53:11 GMT 55.773193 46.676247 33,425 281 395 1728
2021-07-30 11:53:02 GMT 55.769859 46.708031 33,125 281 398 1984
2021-07-30 11:52:52 GMT 55.766327 46.741917 32,775 281 401 1792
2021-07-30 11:52:41 GMT 55.762833 46.775150 32,475 281 403 1472
2021-07-30 11:52:31 GMT 55.759369 46.807835 32,250 281 404 896
2021-07-30 11:52:21 GMT 55.755798 46.841625 32,075 281 404 960
2021-07-30 11:52:10 GMT 55.752216 46.875484 31,900 281 402 1024
2021-07-30 11:51:59 GMT 55.748585 46.909306 31,725 281 401 1280
2021-07-30 11:51:50 GMT 55.745041 46.942581 31,500 281 400 1344
2021-07-30 11:51:39 GMT 55.741470 46.975708 31,250 281 400 1344
2021-07-30 11:51:29 GMT 55.738018 47.007923 31,050 281 399 1280
2021-07-30 11:51:19 GMT 55.734421 47.041374 30,825 281 397 1344
2021-07-30 11:51:07 GMT 55.730759 47.075500 30,575 281 395 1472
2021-07-30 11:50:58 GMT 55.727142 47.108875 30,300 281 395 1664
2021-07-30 11:50:47 GMT 55.723774 47.140186 30,050 281 395 1408
2021-07-30 11:50:36 GMT 55.720097 47.174175 29,775 281 394 1536
2021-07-30 11:50:26 GMT 55.716522 47.206837 29,525 281 393 1472
2021-07-30 11:50:17 GMT 55.713112 47.238209 29,275 282 392 1536
2021-07-30 11:50:06 GMT 55.709473 47.271339 29,025 282 390 1600
2021-07-30 11:49:56 GMT 55.705994 47.302883 28,750 281 389 1856
2021-07-30 11:49:45 GMT 55.702454 47.335197 28,425 281 389 1984
2021-07-30 11:49:35 GMT 55.698959 47.366955 28,100 282 389 1792
2021-07-30 11:49:25 GMT 55.695515 47.398109 27,800 282 388 1664
2021-07-30 11:49:15 GMT 55.691940 47.430309 27,500 282 386 1792
2021-07-30 11:49:05 GMT 55.688461 47.461853 27,200 282 385 1792
2021-07-30 11:48:54 GMT 55.684845 47.494228 26,875 282 384 1728
2021-07-30 11:48:43 GMT 55.681225 47.526772 26,600 282 383 1472
2021-07-30 11:48:33 GMT 55.677780 47.557323 26,350 282 380 1472
2021-07-30 11:48:24 GMT 55.674271 47.588696 26,075 282 377 1920
2021-07-30 11:48:12 GMT 55.670704 47.620499 25,725 282 375 1856
2021-07-30 11:48:03 GMT 55.667221 47.651535 25,425 282 374 1728
2021-07-30 11:47:51 GMT 55.663536 47.683926 25,125 282 371 1536
2021-07-30 11:47:42 GMT 55.660370 47.711990 24,850 282 368 2176
2021-07-30 11:47:31 GMT 55.656876 47.742836 24,475 282 368 2112
2021-07-30 11:47:22 GMT 55.653481 47.772675 24,125 282 367 1920
2021-07-30 11:47:11 GMT 55.649895 47.804089 23,775 282 365 2368
2021-07-30 11:47:00 GMT 55.646450 47.834473 23,350 282 365 2240
2021-07-30 11:46:50 GMT 55.643005 47.864269 22,975 282 363 2240
2021-07-30 11:46:39 GMT 55.639561 47.894642 22,600 282 362 2112
2021-07-30 11:46:29 GMT 55.636047 47.924778 22,225 282 361 2112
2021-07-30 11:46:19 GMT 55.632660 47.954159 21,875 282 359 2112
2021-07-30 11:46:09 GMT 55.629177 47.984077 21,525 282 356 1664
2021-07-30 11:45:58 GMT 55.625748 48.013664 21,225 282 352 1920
2021-07-30 11:45:47 GMT 55.622360 48.043045 20,875 282 349 1984
2021-07-30 11:45:38 GMT 55.619110 48.070847 20,550 282 347 2112
2021-07-30 11:45:27 GMT 55.615768 48.099560 20,200 282 345 1920
2021-07-30 11:45:17 GMT 55.612473 48.127689 19,850 282 343 1984
2021-07-30 11:45:06 GMT 55.609116 48.156593 19,500 282 341 2048
2021-07-30 11:44:57 GMT 55.605808 48.184834 19,150 282 340 2048
2021-07-30 11:44:46 GMT 55.602692 48.211185 18,825 282 340 1920
2021-07-30 11:44:36 GMT 55.599384 48.239422 18,475 282 340 1984
2021-07-30 11:44:26 GMT 55.596039 48.267685 18,125 282 337 1984
2021-07-30 11:44:15 GMT 55.592728 48.295643 17,775 282 334 1984
2021-07-30 11:44:05 GMT 55.589561 48.322247 17,450 282 331 2048
2021-07-30 11:43:54 GMT 55.586304 48.349545 17,100 282 326 2112
2021-07-30 11:43:45 GMT 55.583084 48.376797 16,725 282 326 1920
2021-07-30 11:43:34 GMT 55.579834 48.403702 16,400 282 324 1984
2021-07-30 11:43:23 GMT 55.576675 48.429897 16,050 282 323 2048
2021-07-30 11:43:13 GMT 55.573689 48.455200 15,725 282 320 2048
2021-07-30 11:43:04 GMT 55.570404 48.482334 15,375 282 318 1984
2021-07-30 11:42:53 GMT 55.567337 48.507969 15,025 283 318 1920
2021-07-30 11:42:42 GMT 55.564098 48.534424 14,675 283 317 2048
2021-07-30 11:42:33 GMT 55.560982 48.559830 14,350 283 315 1920
2021-07-30 11:42:22 GMT 55.557816 48.585289 14,025 283 315 1984
2021-07-30 11:42:12 GMT 55.554611 48.611256 13,675 283 313 1984
2021-07-30 11:42:02 GMT 55.551270 48.637890 13,325 283 310 1920
2021-07-30 11:41:51 GMT 55.548203 48.662109 13,000 283 306 2112
2021-07-30 11:41:40 GMT 55.544952 48.687828 12,625 283 302 1984
2021-07-30 11:41:31 GMT 55.541885 48.711548 12,300 283 300 2048
2021-07-30 11:41:21 GMT 55.538635 48.736637 11,950 283 300 2048
2021-07-30 11:41:10 GMT 55.535564 48.761272 11,600 283 300 1920
2021-07-30 11:41:00 GMT 55.532631 48.786762 11,275 281 300 1984
2021-07-30 11:40:49 GMT 55.530304 48.811092 10,925 278 296 2112
2021-07-30 11:40:39 GMT 55.529297 48.836143 10,600 269 289 896
2021-07-30 11:40:28 GMT 55.530907 48.859291 10,450 258 274 1728
2021-07-30 11:40:19 GMT 55.534679 48.881264 10,075 249 267 3008
2021-07-30 11:40:08 GMT 55.539520 48.902122 9,525 248 266 3520
2021-07-30 11:39:58 GMT 55.544407 48.922806 8,900 248 267 3584

Making use of Plane Finder data

You are free to use the raw flight data, aircraft information and images provided in this report for your own purposes provided the data is correctly attributed to Plane Finder. We ask that you please credit Plane Finder and link to planefinder.net in close proximity to the content.

Optionally one of the following logos (no smaller then 150x24px) can be used and must link to planefinder.net

Embedding the Plane Finder map

You are welcome to embed the Plane Finder playback map on your website to offer visitors a more interactive experience. We suggest using the following HTML code:

<iframe src="//planefinder.net/data/report/SU1277-RA-89024-7700-squawk-2021-07-30/map" width="800" height="600" seamless="seamless"></iframe>

Where our data comes from

Plane Finder has a global network of data feeds and antenna radars that receive data broadcast directly from aircraft. The primary technologies used are ADS-B and MLAT. We also show feeds from the FAA and a FLARM glider feed.

Click here to find out more about the Plane Finder network.

How we collect our data